<?xml version='1.0' encoding='UTF-8'?>
<gpx version="1.1" creator="https://www.komoot.de" xmlns="http://www.topografix.com/GPX/1/1" xmlns:xsi="http://www.w3.org/2001/XMLSchema-instance" xsi:schemaLocation="http://www.topografix.com/GPX/1/1 http://www.topografix.com/GPX/1/1/gpx.xsd">
  <metadata>
    <name>37_640NeuligOrmalingen</name>
    <author>
      <link href="https://www.komoot.de">
        <text>komoot</text>
        <type>text/html</type>
      </link>
    </author>
  </metadata>
  <trk>
    <name>37_640NeuligOrmalingen</name>
    <trkseg>
      <trkpt lat="47.541124" lon="7.871029">
        <ele>343.040691</ele>
        <time>2021-11-22T19:51:47.448Z</time>
      </trkpt>
      <trkpt lat="47.540933" lon="7.871187">
        <ele>343.040691</ele>
        <time>2021-11-22T19:51:52.250Z</time>
      </trkpt>
      <trkpt lat="47.540894" lon="7.871220">
        <ele>343.040691</ele>
        <time>2021-11-22T19:51:53.378Z</time>
      </trkpt>
      <trkpt lat="47.540693" lon="7.871390">
        <ele>343.040691</ele>
        <time>2021-11-22T19:51:58.774Z</time>
      </trkpt>
      <trkpt lat="47.540463" lon="7.871584">
        <ele>343.040691</ele>
        <time>2021-11-22T19:52:04.946Z</time>
      </trkpt>
      <trkpt lat="47.540265" lon="7.871808">
        <ele>343.229791</ele>
        <time>2021-11-22T19:52:10.430Z</time>
      </trkpt>
      <trkpt lat="47.540216" lon="7.871851">
        <ele>343.328037</ele>
        <time>2021-11-22T19:52:11.885Z</time>
      </trkpt>
      <trkpt lat="47.540034" lon="7.871970">
        <ele>343.671217</ele>
        <time>2021-11-22T19:52:16.464Z</time>
      </trkpt>
      <trkpt lat="47.539930" lon="7.872041">
        <ele>343.868756</ele>
        <time>2021-11-22T19:52:19.031Z</time>
      </trkpt>
      <trkpt lat="47.539841" lon="7.872151">
        <ele>344.068706</ele>
        <time>2021-11-22T19:52:22.053Z</time>
      </trkpt>
      <trkpt lat="47.539678" lon="7.872430">
        <ele>344.498387</ele>
        <time>2021-11-22T19:52:27.582Z</time>
      </trkpt>
      <trkpt lat="47.539222" lon="7.873416">
        <ele>345.890225</ele>
        <time>2021-11-22T19:52:45.124Z</time>
      </trkpt>
      <trkpt lat="47.538278" lon="7.874319">
        <ele>347.127128</ele>
        <time>2021-11-22T19:53:04.778Z</time>
      </trkpt>
      <trkpt lat="47.537716" lon="7.874966">
        <ele>347.843835</ele>
        <time>2021-11-22T19:53:18.753Z</time>
      </trkpt>
      <trkpt lat="47.537261" lon="7.875237">
        <ele>348.810975</ele>
        <time>2021-11-22T19:53:28.270Z</time>
      </trkpt>
      <trkpt lat="47.537182" lon="7.875293">
        <ele>349.008113</ele>
        <time>2021-11-22T19:53:30.258Z</time>
      </trkpt>
      <trkpt lat="47.536921" lon="7.875537">
        <ele>349.702833</ele>
        <time>2021-11-22T19:53:36.225Z</time>
      </trkpt>
      <trkpt lat="47.536757" lon="7.875759">
        <ele>350.202919</ele>
        <time>2021-11-22T19:53:40.827Z</time>
      </trkpt>
      <trkpt lat="47.536632" lon="7.875912">
        <ele>350.567922</ele>
        <time>2021-11-22T19:53:43.995Z</time>
      </trkpt>
      <trkpt lat="47.536444" lon="7.876177">
        <ele>351.152089</ele>
        <time>2021-11-22T19:53:50.957Z</time>
      </trkpt>
      <trkpt lat="47.535851" lon="7.877319">
        <ele>355.007604</ele>
        <time>2021-11-22T19:54:22.270Z</time>
      </trkpt>
      <trkpt lat="47.535770" lon="7.877432">
        <ele>355.569865</ele>
        <time>2021-11-22T19:54:26.450Z</time>
      </trkpt>
      <trkpt lat="47.535635" lon="7.877484">
        <ele>356.274722</ele>
        <time>2021-11-22T19:54:32.318Z</time>
      </trkpt>
      <trkpt lat="47.535551" lon="7.877487">
        <ele>356.699306</ele>
        <time>2021-11-22T19:54:34.226Z</time>
      </trkpt>
      <trkpt lat="47.535322" lon="7.877590">
        <ele>357.908642</ele>
        <time>2021-11-22T19:54:44.278Z</time>
      </trkpt>
      <trkpt lat="47.535088" lon="7.877742">
        <ele>359.199776</ele>
        <time>2021-11-22T19:54:52.110Z</time>
      </trkpt>
      <trkpt lat="47.534855" lon="7.878090">
        <ele>360.871810</ele>
        <time>2021-11-22T19:55:04.093Z</time>
      </trkpt>
      <trkpt lat="47.534778" lon="7.878270">
        <ele>361.570865</ele>
        <time>2021-11-22T19:55:11.400Z</time>
      </trkpt>
      <trkpt lat="47.534825" lon="7.878414">
        <ele>362.086478</ele>
        <time>2021-11-22T19:55:14.026Z</time>
      </trkpt>
      <trkpt lat="47.534946" lon="7.878790">
        <ele>363.429239</ele>
        <time>2021-11-22T19:55:26.074Z</time>
      </trkpt>
      <trkpt lat="47.534908" lon="7.878975">
        <ele>364.052613</ele>
        <time>2021-11-22T19:55:30.132Z</time>
      </trkpt>
      <trkpt lat="47.534616" lon="7.879490">
        <ele>366.220613</ele>
        <time>2021-11-22T19:55:47.079Z</time>
      </trkpt>
      <trkpt lat="47.533892" lon="7.880353">
        <ele>370.080077</ele>
        <time>2021-11-22T19:56:14.818Z</time>
      </trkpt>
      <trkpt lat="47.533606" lon="7.880961">
        <ele>371.057124</ele>
        <time>2021-11-22T19:56:27.127Z</time>
      </trkpt>
      <trkpt lat="47.533374" lon="7.881639">
        <ele>372.059346</ele>
        <time>2021-11-22T19:56:38.172Z</time>
      </trkpt>
      <trkpt lat="47.533014" lon="7.882949">
        <ele>373.058378</ele>
        <time>2021-11-22T19:56:56.087Z</time>
      </trkpt>
      <trkpt lat="47.532859" lon="7.883508">
        <ele>372.912070</ele>
        <time>2021-11-22T19:57:01.965Z</time>
      </trkpt>
      <trkpt lat="47.532713" lon="7.884122">
        <ele>372.754465</ele>
        <time>2021-11-22T19:57:07.662Z</time>
      </trkpt>
      <trkpt lat="47.532699" lon="7.884224">
        <ele>372.729265</ele>
        <time>2021-11-22T19:57:08.617Z</time>
      </trkpt>
      <trkpt lat="47.532670" lon="7.884773">
        <ele>372.595941</ele>
        <time>2021-11-22T19:57:13.110Z</time>
      </trkpt>
      <trkpt lat="47.532658" lon="7.884989">
        <ele>372.528412</ele>
        <time>2021-11-22T19:57:14.722Z</time>
      </trkpt>
      <trkpt lat="47.532650" lon="7.885569">
        <ele>371.890879</ele>
        <time>2021-11-22T19:57:19.224Z</time>
      </trkpt>
      <trkpt lat="47.532505" lon="7.887120">
        <ele>370.170119</ele>
        <time>2021-11-22T19:57:31.176Z</time>
      </trkpt>
      <trkpt lat="47.532288" lon="7.887728">
        <ele>369.433623</ele>
        <time>2021-11-22T19:57:36.353Z</time>
      </trkpt>
      <trkpt lat="47.532011" lon="7.888896">
        <ele>368.200687</ele>
        <time>2021-11-22T19:57:45.582Z</time>
      </trkpt>
      <trkpt lat="47.531843" lon="7.889349">
        <ele>367.685944</ele>
        <time>2021-11-22T19:57:49.619Z</time>
      </trkpt>
      <trkpt lat="47.531560" lon="7.889776">
        <ele>367.090024</ele>
        <time>2021-11-22T19:57:54.559Z</time>
      </trkpt>
      <trkpt lat="47.531265" lon="7.889937">
        <ele>367.017735</ele>
        <time>2021-11-22T19:57:58.527Z</time>
      </trkpt>
      <trkpt lat="47.531076" lon="7.890029">
        <ele>367.061491</ele>
        <time>2021-11-22T19:58:01.369Z</time>
      </trkpt>
      <trkpt lat="47.530606" lon="7.890373">
        <ele>367.176797</ele>
        <time>2021-11-22T19:58:09.217Z</time>
      </trkpt>
      <trkpt lat="47.530322" lon="7.890690">
        <ele>367.255012</ele>
        <time>2021-11-22T19:58:15.211Z</time>
      </trkpt>
      <trkpt lat="47.529972" lon="7.891210">
        <ele>367.369799</ele>
        <time>2021-11-22T19:58:24.373Z</time>
      </trkpt>
      <trkpt lat="47.529714" lon="7.891609">
        <ele>367.763080</ele>
        <time>2021-11-22T19:58:31.706Z</time>
      </trkpt>
      <trkpt lat="47.529695" lon="7.891638">
        <ele>367.791846</ele>
        <time>2021-11-22T19:58:32.693Z</time>
      </trkpt>
      <trkpt lat="47.529235" lon="7.892158">
        <ele>368.401963</ele>
        <time>2021-11-22T19:58:43.626Z</time>
      </trkpt>
      <trkpt lat="47.528331" lon="7.892682">
        <ele>369.520731</ele>
        <time>2021-11-22T19:59:02.329Z</time>
      </trkpt>
      <trkpt lat="47.528003" lon="7.892732">
        <ele>370.067172</ele>
        <time>2021-11-22T19:59:08.035Z</time>
      </trkpt>
      <trkpt lat="47.527498" lon="7.892650">
        <ele>370.909085</ele>
        <time>2021-11-22T19:59:17.508Z</time>
      </trkpt>
      <trkpt lat="47.527011" lon="7.893061">
        <ele>371.838000</ele>
        <time>2021-11-22T19:59:30.700Z</time>
      </trkpt>
      <trkpt lat="47.526709" lon="7.893617">
        <ele>372.909013</ele>
        <time>2021-11-22T19:59:43.232Z</time>
      </trkpt>
      <trkpt lat="47.526504" lon="7.894030">
        <ele>373.876480</ele>
        <time>2021-11-22T19:59:53.413Z</time>
      </trkpt>
      <trkpt lat="47.526451" lon="7.893983">
        <ele>374.049154</ele>
        <time>2021-11-22T19:59:54.802Z</time>
      </trkpt>
      <trkpt lat="47.526401" lon="7.893964">
        <ele>374.193442</ele>
        <time>2021-11-22T19:59:55.620Z</time>
      </trkpt>
      <trkpt lat="47.526335" lon="7.893960">
        <ele>374.378079</ele>
        <time>2021-11-22T19:59:57.694Z</time>
      </trkpt>
      <trkpt lat="47.526257" lon="7.894278">
        <ele>375.016663</ele>
        <time>2021-11-22T20:00:03.905Z</time>
      </trkpt>
      <trkpt lat="47.525725" lon="7.895110">
        <ele>377.179387</ele>
        <time>2021-11-22T20:00:22.987Z</time>
      </trkpt>
      <trkpt lat="47.525603" lon="7.895265">
        <ele>377.430127</ele>
        <time>2021-11-22T20:00:28.603Z</time>
      </trkpt>
      <trkpt lat="47.525631" lon="7.895442">
        <ele>377.584786</ele>
        <time>2021-11-22T20:00:31.453Z</time>
      </trkpt>
      <trkpt lat="47.525631" lon="7.895583">
        <ele>377.704742</ele>
        <time>2021-11-22T20:00:32.645Z</time>
      </trkpt>
      <trkpt lat="47.525622" lon="7.895944">
        <ele>378.012071</ele>
        <time>2021-11-22T20:00:40.080Z</time>
      </trkpt>
      <trkpt lat="47.525590" lon="7.896117">
        <ele>378.164673</ele>
        <time>2021-11-22T20:00:41.633Z</time>
      </trkpt>
      <trkpt lat="47.525518" lon="7.896336">
        <ele>378.371897</ele>
        <time>2021-11-22T20:00:46.440Z</time>
      </trkpt>
      <trkpt lat="47.524834" lon="7.897636">
        <ele>379.533305</ele>
        <time>2021-11-22T20:01:03.364Z</time>
      </trkpt>
      <trkpt lat="47.524617" lon="7.898216">
        <ele>379.533418</ele>
        <time>2021-11-22T20:01:09.537Z</time>
      </trkpt>
      <trkpt lat="47.524360" lon="7.898951">
        <ele>379.533559</ele>
        <time>2021-11-22T20:01:17.078Z</time>
      </trkpt>
      <trkpt lat="47.524309" lon="7.899115">
        <ele>379.533590</ele>
        <time>2021-11-22T20:01:18.992Z</time>
      </trkpt>
      <trkpt lat="47.523896" lon="7.900001">
        <ele>380.044740</ele>
        <time>2021-11-22T20:01:30.915Z</time>
      </trkpt>
      <trkpt lat="47.523861" lon="7.900049">
        <ele>380.143030</ele>
        <time>2021-11-22T20:01:31.894Z</time>
      </trkpt>
      <trkpt lat="47.523890" lon="7.900131">
        <ele>380.271823</ele>
        <time>2021-11-22T20:01:32.849Z</time>
      </trkpt>
      <trkpt lat="47.523945" lon="7.900256">
        <ele>380.479407</ele>
        <time>2021-11-22T20:01:34.439Z</time>
      </trkpt>
      <trkpt lat="47.523989" lon="7.900340">
        <ele>380.627322</ele>
        <time>2021-11-22T20:01:35.490Z</time>
      </trkpt>
      <trkpt lat="47.523957" lon="7.900371">
        <ele>380.706111</ele>
        <time>2021-11-22T20:01:36.194Z</time>
      </trkpt>
      <trkpt lat="47.523878" lon="7.900445">
        <ele>380.898716</ele>
        <time>2021-11-22T20:01:38.311Z</time>
      </trkpt>
      <trkpt lat="47.523739" lon="7.900557">
        <ele>381.224767</ele>
        <time>2021-11-22T20:01:41.243Z</time>
      </trkpt>
      <trkpt lat="47.523648" lon="7.900606">
        <ele>381.424277</ele>
        <time>2021-11-22T20:01:43.422Z</time>
      </trkpt>
      <trkpt lat="47.523620" lon="7.900698">
        <ele>381.564685</ele>
        <time>2021-11-22T20:01:45.385Z</time>
      </trkpt>
      <trkpt lat="47.523567" lon="7.900820">
        <ele>381.766526</ele>
        <time>2021-11-22T20:01:47.482Z</time>
      </trkpt>
      <trkpt lat="47.523433" lon="7.901043">
        <ele>382.181861</ele>
        <time>2021-11-22T20:01:52.726Z</time>
      </trkpt>
      <trkpt lat="47.523340" lon="7.901197">
        <ele>382.469319</ele>
        <time>2021-11-22T20:01:56.769Z</time>
      </trkpt>
      <trkpt lat="47.523036" lon="7.901580">
        <ele>383.344004</ele>
        <time>2021-11-22T20:02:08.464Z</time>
      </trkpt>
      <trkpt lat="47.522688" lon="7.901843">
        <ele>384.958354</ele>
        <time>2021-11-22T20:02:20.782Z</time>
      </trkpt>
      <trkpt lat="47.522554" lon="7.901999">
        <ele>385.662652</ele>
        <time>2021-11-22T20:02:27.103Z</time>
      </trkpt>
      <trkpt lat="47.522260" lon="7.902356">
        <ele>387.233641</ele>
        <time>2021-11-22T20:02:39.476Z</time>
      </trkpt>
      <trkpt lat="47.522132" lon="7.902476">
        <ele>387.859611</ele>
        <time>2021-11-22T20:02:44.034Z</time>
      </trkpt>
      <trkpt lat="47.522065" lon="7.902526">
        <ele>388.169620</ele>
        <time>2021-11-22T20:02:46.229Z</time>
      </trkpt>
      <trkpt lat="47.522038" lon="7.902562">
        <ele>388.319742</ele>
        <time>2021-11-22T20:02:47.733Z</time>
      </trkpt>
      <trkpt lat="47.522013" lon="7.902637">
        <ele>388.553122</ele>
        <time>2021-11-22T20:02:49.866Z</time>
      </trkpt>
      <trkpt lat="47.521792" lon="7.903347">
        <ele>390.712672</ele>
        <time>2021-11-22T20:03:05.935Z</time>
      </trkpt>
      <trkpt lat="47.521297" lon="7.904312">
        <ele>392.918196</ele>
        <time>2021-11-22T20:03:29.937Z</time>
      </trkpt>
      <trkpt lat="47.520989" lon="7.905130">
        <ele>394.622749</ele>
        <time>2021-11-22T20:03:45.351Z</time>
      </trkpt>
      <trkpt lat="47.520678" lon="7.906050">
        <ele>395.665928</ele>
        <time>2021-11-22T20:03:58.822Z</time>
      </trkpt>
      <trkpt lat="47.520566" lon="7.906668">
        <ele>395.841162</ele>
        <time>2021-11-22T20:04:05.841Z</time>
      </trkpt>
      <trkpt lat="47.520528" lon="7.906930">
        <ele>395.914550</ele>
        <time>2021-11-22T20:04:09.101Z</time>
      </trkpt>
      <trkpt lat="47.520515" lon="7.907103">
        <ele>395.962221</ele>
        <time>2021-11-22T20:04:10.899Z</time>
      </trkpt>
      <trkpt lat="47.520506" lon="7.907236">
        <ele>395.998827</ele>
        <time>2021-11-22T20:04:11.975Z</time>
      </trkpt>
      <trkpt lat="47.520551" lon="7.907422">
        <ele>396.052935</ele>
        <time>2021-11-22T20:04:14.385Z</time>
      </trkpt>
      <trkpt lat="47.520733" lon="7.907655">
        <ele>396.150500</ele>
        <time>2021-11-22T20:04:17.572Z</time>
      </trkpt>
      <trkpt lat="47.520738" lon="7.907839">
        <ele>396.200931</ele>
        <time>2021-11-22T20:04:19.715Z</time>
      </trkpt>
      <trkpt lat="47.520493" lon="7.908683">
        <ele>396.398495</ele>
        <time>2021-11-22T20:04:27.894Z</time>
      </trkpt>
      <trkpt lat="47.519997" lon="7.910833">
        <ele>397.033638</ele>
        <time>2021-11-22T20:04:53.841Z</time>
      </trkpt>
      <trkpt lat="47.519891" lon="7.911129">
        <ele>397.269303</ele>
        <time>2021-11-22T20:04:58.431Z</time>
      </trkpt>
      <trkpt lat="47.519720" lon="7.911522">
        <ele>397.598145</ele>
        <time>2021-11-22T20:05:04.515Z</time>
      </trkpt>
      <trkpt lat="47.519421" lon="7.912098">
        <ele>398.109161</ele>
        <time>2021-11-22T20:05:14.081Z</time>
      </trkpt>
      <trkpt lat="47.517688" lon="7.914418">
        <ele>400.583746</ele>
        <time>2021-11-22T20:05:58.660Z</time>
      </trkpt>
      <trkpt lat="47.517281" lon="7.915238">
        <ele>401.225984</ele>
        <time>2021-11-22T20:06:11.674Z</time>
      </trkpt>
      <trkpt lat="47.517140" lon="7.915259">
        <ele>401.358409</ele>
        <time>2021-11-22T20:06:14.174Z</time>
      </trkpt>
      <trkpt lat="47.516806" lon="7.914896">
        <ele>401.745579</ele>
        <time>2021-11-22T20:06:21.749Z</time>
      </trkpt>
      <trkpt lat="47.516748" lon="7.914873">
        <ele>401.801688</ele>
        <time>2021-11-22T20:06:22.920Z</time>
      </trkpt>
      <trkpt lat="47.516662" lon="7.914835">
        <ele>401.885555</ele>
        <time>2021-11-22T20:06:24.712Z</time>
      </trkpt>
      <trkpt lat="47.516626" lon="7.914830">
        <ele>401.919344</ele>
        <time>2021-11-22T20:06:25.407Z</time>
      </trkpt>
      <trkpt lat="47.516590" lon="7.914840">
        <ele>401.953572</ele>
        <time>2021-11-22T20:06:26.002Z</time>
      </trkpt>
      <trkpt lat="47.516569" lon="7.914864">
        <ele>401.978362</ele>
        <time>2021-11-22T20:06:26.537Z</time>
      </trkpt>
      <trkpt lat="47.516544" lon="7.914936">
        <ele>402.029456</ele>
        <time>2021-11-22T20:06:27.384Z</time>
      </trkpt>
      <trkpt lat="47.516391" lon="7.915243">
        <ele>402.269965</ele>
        <time>2021-11-22T20:06:32.176Z</time>
      </trkpt>
      <trkpt lat="47.515014" lon="7.917030">
        <ele>403.976572</ele>
        <time>2021-11-22T20:07:05.953Z</time>
      </trkpt>
      <trkpt lat="47.514635" lon="7.917349">
        <ele>404.616468</ele>
        <time>2021-11-22T20:07:14.071Z</time>
      </trkpt>
      <trkpt lat="47.514561" lon="7.917409">
        <ele>404.740304</ele>
        <time>2021-11-22T20:07:15.963Z</time>
      </trkpt>
      <trkpt lat="47.514255" lon="7.917714">
        <ele>405.281740</ele>
        <time>2021-11-22T20:07:23.432Z</time>
      </trkpt>
      <trkpt lat="47.513378" lon="7.918393">
        <ele>406.891451</ele>
        <time>2021-11-22T20:07:45.159Z</time>
      </trkpt>
      <trkpt lat="47.513160" lon="7.918764">
        <ele>407.782328</ele>
        <time>2021-11-22T20:07:52.660Z</time>
      </trkpt>
      <trkpt lat="47.513058" lon="7.918896">
        <ele>408.145700</ele>
        <time>2021-11-22T20:07:55.816Z</time>
      </trkpt>
      <trkpt lat="47.512938" lon="7.919052">
        <ele>408.574040</ele>
        <time>2021-11-22T20:07:59.595Z</time>
      </trkpt>
      <trkpt lat="47.512664" lon="7.919306">
        <ele>409.441154</ele>
        <time>2021-11-22T20:08:07.818Z</time>
      </trkpt>
      <trkpt lat="47.512255" lon="7.919538">
        <ele>410.615960</ele>
        <time>2021-11-22T20:08:19.744Z</time>
      </trkpt>
      <trkpt lat="47.512085" lon="7.919732">
        <ele>411.191678</ele>
        <time>2021-11-22T20:08:25.952Z</time>
      </trkpt>
      <trkpt lat="47.511964" lon="7.919989">
        <ele>412.062251</ele>
        <time>2021-11-22T20:08:32.432Z</time>
      </trkpt>
      <trkpt lat="47.511883" lon="7.920133">
        <ele>412.665342</ele>
        <time>2021-11-22T20:08:36.446Z</time>
      </trkpt>
      <trkpt lat="47.511632" lon="7.920105">
        <ele>413.864677</ele>
        <time>2021-11-22T20:08:45.427Z</time>
      </trkpt>
      <trkpt lat="47.511375" lon="7.920079">
        <ele>415.092065</ele>
        <time>2021-11-22T20:08:53.922Z</time>
      </trkpt>
      <trkpt lat="47.510704" lon="7.919944">
        <ele>418.318577</ele>
        <time>2021-11-22T20:09:20.884Z</time>
      </trkpt>
      <trkpt lat="47.510627" lon="7.919935">
        <ele>418.686602</ele>
        <time>2021-11-22T20:09:23.728Z</time>
      </trkpt>
      <trkpt lat="47.510551" lon="7.919925">
        <ele>419.050148</ele>
        <time>2021-11-22T20:09:27.195Z</time>
      </trkpt>
      <trkpt lat="47.509902" lon="7.920009">
        <ele>424.888789</ele>
        <time>2021-11-22T20:09:58.415Z</time>
      </trkpt>
      <trkpt lat="47.509811" lon="7.920040">
        <ele>425.882921</ele>
        <time>2021-11-22T20:10:02.817Z</time>
      </trkpt>
      <trkpt lat="47.509780" lon="7.919943">
        <ele>426.654605</ele>
        <time>2021-11-22T20:10:07.951Z</time>
      </trkpt>
      <trkpt lat="47.509592" lon="7.919606">
        <ele>429.797709</ele>
        <time>2021-11-22T20:10:21.114Z</time>
      </trkpt>
      <trkpt lat="47.509472" lon="7.919450">
        <ele>431.497905</ele>
        <time>2021-11-22T20:10:33.804Z</time>
      </trkpt>
      <trkpt lat="47.509413" lon="7.919394">
        <ele>432.244046</ele>
        <time>2021-11-22T20:10:36.820Z</time>
      </trkpt>
      <trkpt lat="47.509300" lon="7.919312">
        <ele>433.583829</ele>
        <time>2021-11-22T20:10:43.763Z</time>
      </trkpt>
      <trkpt lat="47.509213" lon="7.919220">
        <ele>434.722079</ele>
        <time>2021-11-22T20:10:55.027Z</time>
      </trkpt>
      <trkpt lat="47.508928" lon="7.918826">
        <ele>438.873512</ele>
        <time>2021-11-22T20:11:21.206Z</time>
      </trkpt>
      <trkpt lat="47.508826" lon="7.918731">
        <ele>440.861895</ele>
        <time>2021-11-22T20:11:27.607Z</time>
      </trkpt>
      <trkpt lat="47.508716" lon="7.918612">
        <ele>443.269896</ele>
        <time>2021-11-22T20:11:39.592Z</time>
      </trkpt>
      <trkpt lat="47.508696" lon="7.918579">
        <ele>443.799218</ele>
        <time>2021-11-22T20:11:42.842Z</time>
      </trkpt>
      <trkpt lat="47.508574" lon="7.918322">
        <ele>447.549443</ele>
        <time>2021-11-22T20:11:55.177Z</time>
      </trkpt>
      <trkpt lat="47.508539" lon="7.918215">
        <ele>448.968811</ele>
        <time>2021-11-22T20:12:00.434Z</time>
      </trkpt>
      <trkpt lat="47.508519" lon="7.918140">
        <ele>449.931483</ele>
        <time>2021-11-22T20:12:06.324Z</time>
      </trkpt>
      <trkpt lat="47.508288" lon="7.916949">
        <ele>464.725358</ele>
        <time>2021-11-22T20:13:19.756Z</time>
      </trkpt>
      <trkpt lat="47.507722" lon="7.915765">
        <ele>481.968785</ele>
        <time>2021-11-22T20:14:54.698Z</time>
      </trkpt>
      <trkpt lat="47.507619" lon="7.915426">
        <ele>486.377239</ele>
        <time>2021-11-22T20:15:18.000Z</time>
      </trkpt>
      <trkpt lat="47.507438" lon="7.914913">
        <ele>493.241272</ele>
        <time>2021-11-22T20:15:52.562Z</time>
      </trkpt>
      <trkpt lat="47.507031" lon="7.914093">
        <ele>503.138979</ele>
        <time>2021-11-22T20:16:43.672Z</time>
      </trkpt>
      <trkpt lat="47.506741" lon="7.913552">
        <ele>505.095761</ele>
        <time>2021-11-22T20:17:08.687Z</time>
      </trkpt>
      <trkpt lat="47.506620" lon="7.913426">
        <ele>505.716256</ele>
        <time>2021-11-22T20:17:13.733Z</time>
      </trkpt>
      <trkpt lat="47.506403" lon="7.913196">
        <ele>506.835659</ele>
        <time>2021-11-22T20:17:20.318Z</time>
      </trkpt>
      <trkpt lat="47.506357" lon="7.913069">
        <ele>507.243951</ele>
        <time>2021-11-22T20:17:22.825Z</time>
      </trkpt>
      <trkpt lat="47.506370" lon="7.912895">
        <ele>507.739952</ele>
        <time>2021-11-22T20:17:25.036Z</time>
      </trkpt>
      <trkpt lat="47.506397" lon="7.912810">
        <ele>508.006080</ele>
        <time>2021-11-22T20:17:26.857Z</time>
      </trkpt>
      <trkpt lat="47.506437" lon="7.912765">
        <ele>508.216802</ele>
        <time>2021-11-22T20:17:27.288Z</time>
      </trkpt>
      <trkpt lat="47.506603" lon="7.912858">
        <ele>508.961251</ele>
        <time>2021-11-22T20:17:30.100Z</time>
      </trkpt>
      <trkpt lat="47.507354" lon="7.913927">
        <ele>505.078552</ele>
        <time>2021-11-22T20:17:39.882Z</time>
      </trkpt>
      <trkpt lat="47.507503" lon="7.914069">
        <ele>503.979439</ele>
        <time>2021-11-22T20:17:41.429Z</time>
      </trkpt>
      <trkpt lat="47.507686" lon="7.914148">
        <ele>502.797109</ele>
        <time>2021-11-22T20:17:43.076Z</time>
      </trkpt>
      <trkpt lat="47.508426" lon="7.914164">
        <ele>498.795980</ele>
        <time>2021-11-22T20:17:49.686Z</time>
      </trkpt>
      <trkpt lat="47.508709" lon="7.914562">
        <ele>498.607383</ele>
        <time>2021-11-22T20:17:53.292Z</time>
      </trkpt>
      <trkpt lat="47.508782" lon="7.914668">
        <ele>498.557978</ele>
        <time>2021-11-22T20:17:54.222Z</time>
      </trkpt>
      <trkpt lat="47.509091" lon="7.915120">
        <ele>498.348095</ele>
        <time>2021-11-22T20:18:01.673Z</time>
      </trkpt>
      <trkpt lat="47.509594" lon="7.915837">
        <ele>498.010722</ele>
        <time>2021-11-22T20:18:19.788Z</time>
      </trkpt>
      <trkpt lat="47.509723" lon="7.915879">
        <ele>498.426243</ele>
        <time>2021-11-22T20:18:24.545Z</time>
      </trkpt>
      <trkpt lat="47.509854" lon="7.915813">
        <ele>499.434340</ele>
        <time>2021-11-22T20:18:28.270Z</time>
      </trkpt>
      <trkpt lat="47.509916" lon="7.915715">
        <ele>500.095072</ele>
        <time>2021-11-22T20:18:32.232Z</time>
      </trkpt>
      <trkpt lat="47.509948" lon="7.915569">
        <ele>500.850386</ele>
        <time>2021-11-22T20:18:36.552Z</time>
      </trkpt>
      <trkpt lat="47.510115" lon="7.915369">
        <ele>502.415223</ele>
        <time>2021-11-22T20:18:46.055Z</time>
      </trkpt>
      <trkpt lat="47.511596" lon="7.914259">
        <ele>513.915466</ele>
        <time>2021-11-22T20:20:07.873Z</time>
      </trkpt>
      <trkpt lat="47.511803" lon="7.913909">
        <ele>515.808796</ele>
        <time>2021-11-22T20:20:19.387Z</time>
      </trkpt>
      <trkpt lat="47.511968" lon="7.913303">
        <ele>518.467947</ele>
        <time>2021-11-22T20:20:34.170Z</time>
      </trkpt>
      <trkpt lat="47.512010" lon="7.913161">
        <ele>519.098840</ele>
        <time>2021-11-22T20:20:38.572Z</time>
      </trkpt>
      <trkpt lat="47.512111" lon="7.912826">
        <ele>520.591879</ele>
        <time>2021-11-22T20:20:46.310Z</time>
      </trkpt>
      <trkpt lat="47.512145" lon="7.912581">
        <ele>521.609805</ele>
        <time>2021-11-22T20:20:52.744Z</time>
      </trkpt>
      <trkpt lat="47.512145" lon="7.912284">
        <ele>522.677998</ele>
        <time>2021-11-22T20:20:58.805Z</time>
      </trkpt>
      <trkpt lat="47.512105" lon="7.911774">
        <ele>524.441584</ele>
        <time>2021-11-22T20:21:10.781Z</time>
      </trkpt>
      <trkpt lat="47.512094" lon="7.911561">
        <ele>525.175360</ele>
        <time>2021-11-22T20:21:17.024Z</time>
      </trkpt>
      <trkpt lat="47.512061" lon="7.911240">
        <ele>526.290673</ele>
        <time>2021-11-22T20:21:23.356Z</time>
      </trkpt>
      <trkpt lat="47.512046" lon="7.911143">
        <ele>526.632482</ele>
        <time>2021-11-22T20:21:26.628Z</time>
      </trkpt>
      <trkpt lat="47.512027" lon="7.911061">
        <ele>526.930260</ele>
        <time>2021-11-22T20:21:28.924Z</time>
      </trkpt>
      <trkpt lat="47.511999" lon="7.910990">
        <ele>527.212667</ele>
        <time>2021-11-22T20:21:30.874Z</time>
      </trkpt>
      <trkpt lat="47.511957" lon="7.910912">
        <ele>527.555312</ele>
        <time>2021-11-22T20:21:32.605Z</time>
      </trkpt>
      <trkpt lat="47.511612" lon="7.910466">
        <ele>529.884533</ele>
        <time>2021-11-22T20:21:46.153Z</time>
      </trkpt>
      <trkpt lat="47.511554" lon="7.910372">
        <ele>530.321863</ele>
        <time>2021-11-22T20:21:49.975Z</time>
      </trkpt>
      <trkpt lat="47.511423" lon="7.910000">
        <ele>532.133424</ele>
        <time>2021-11-22T20:22:00.341Z</time>
      </trkpt>
      <trkpt lat="47.511210" lon="7.908836">
        <ele>538.473971</ele>
        <time>2021-11-22T20:22:37.485Z</time>
      </trkpt>
      <trkpt lat="47.511051" lon="7.908448">
        <ele>540.860043</ele>
        <time>2021-11-22T20:22:50.944Z</time>
      </trkpt>
      <trkpt lat="47.511003" lon="7.908355">
        <ele>541.475421</ele>
        <time>2021-11-22T20:22:55.620Z</time>
      </trkpt>
      <trkpt lat="47.510770" lon="7.908048">
        <ele>543.903343</ele>
        <time>2021-11-22T20:23:09.496Z</time>
      </trkpt>
      <trkpt lat="47.509018" lon="7.905757">
        <ele>570.706627</ele>
        <time>2021-11-22T20:25:24.939Z</time>
      </trkpt>
      <trkpt lat="47.508735" lon="7.905378">
        <ele>576.970816</ele>
        <time>2021-11-22T20:25:54.770Z</time>
      </trkpt>
      <trkpt lat="47.508336" lon="7.904859">
        <ele>585.689418</ele>
        <time>2021-11-22T20:26:44.118Z</time>
      </trkpt>
      <trkpt lat="47.507755" lon="7.904094">
        <ele>598.420089</ele>
        <time>2021-11-22T20:27:53.570Z</time>
      </trkpt>
      <trkpt lat="47.507642" lon="7.903919">
        <ele>601.085347</ele>
        <time>2021-11-22T20:28:10.162Z</time>
      </trkpt>
      <trkpt lat="47.507513" lon="7.903762">
        <ele>603.807078</ele>
        <time>2021-11-22T20:28:26.024Z</time>
      </trkpt>
      <trkpt lat="47.507370" lon="7.903682">
        <ele>606.298563</ele>
        <time>2021-11-22T20:28:38.427Z</time>
      </trkpt>
      <trkpt lat="47.507207" lon="7.903725">
        <ele>608.996995</ele>
        <time>2021-11-22T20:28:54.229Z</time>
      </trkpt>
      <trkpt lat="47.506576" lon="7.904680">
        <ele>623.332372</ele>
        <time>2021-11-22T20:30:00.019Z</time>
      </trkpt>
      <trkpt lat="47.506523" lon="7.904711">
        <ele>623.638137</ele>
        <time>2021-11-22T20:30:05.001Z</time>
      </trkpt>
      <trkpt lat="47.506472" lon="7.904720">
        <ele>623.913716</ele>
        <time>2021-11-22T20:30:09.379Z</time>
      </trkpt>
      <trkpt lat="47.506293" lon="7.904649">
        <ele>624.908023</ele>
        <time>2021-11-22T20:30:18.221Z</time>
      </trkpt>
      <trkpt lat="47.506127" lon="7.904233">
        <ele>626.659222</ele>
        <time>2021-11-22T20:30:30.312Z</time>
      </trkpt>
      <trkpt lat="47.505921" lon="7.903877">
        <ele>628.358221</ele>
        <time>2021-11-22T20:30:40.826Z</time>
      </trkpt>
      <trkpt lat="47.505864" lon="7.903761">
        <ele>628.878130</ele>
        <time>2021-11-22T20:30:43.944Z</time>
      </trkpt>
      <trkpt lat="47.505779" lon="7.903771">
        <ele>629.335637</ele>
        <time>2021-11-22T20:30:46.210Z</time>
      </trkpt>
      <trkpt lat="47.505478" lon="7.903468">
        <ele>631.288685</ele>
        <time>2021-11-22T20:30:56.200Z</time>
      </trkpt>
      <trkpt lat="47.505092" lon="7.902759">
        <ele>632.054905</ele>
        <time>2021-11-22T20:31:06.807Z</time>
      </trkpt>
      <trkpt lat="47.504178" lon="7.900100">
        <ele>626.749927</ele>
        <time>2021-11-22T20:31:27.167Z</time>
      </trkpt>
      <trkpt lat="47.504061" lon="7.899727">
        <ele>625.725888</ele>
        <time>2021-11-22T20:31:29.853Z</time>
      </trkpt>
      <trkpt lat="47.503897" lon="7.899246">
        <ele>624.384253</ele>
        <time>2021-11-22T20:31:33.372Z</time>
      </trkpt>
      <trkpt lat="47.503634" lon="7.898466">
        <ele>622.213493</ele>
        <time>2021-11-22T20:31:39.147Z</time>
      </trkpt>
      <trkpt lat="47.503488" lon="7.897768">
        <ele>621.732147</ele>
        <time>2021-11-22T20:31:44.094Z</time>
      </trkpt>
      <trkpt lat="47.503447" lon="7.897629">
        <ele>621.642633</ele>
        <time>2021-11-22T20:31:45.234Z</time>
      </trkpt>
      <trkpt lat="47.503354" lon="7.897295">
        <ele>621.429423</ele>
        <time>2021-11-22T20:31:48.060Z</time>
      </trkpt>
      <trkpt lat="47.503096" lon="7.896269">
        <ele>620.783300</ele>
        <time>2021-11-22T20:32:00.412Z</time>
      </trkpt>
      <trkpt lat="47.502986" lon="7.895692">
        <ele>620.596252</ele>
        <time>2021-11-22T20:32:08.430Z</time>
      </trkpt>
      <trkpt lat="47.502949" lon="7.895491">
        <ele>620.612809</ele>
        <time>2021-11-22T20:32:12.150Z</time>
      </trkpt>
      <trkpt lat="47.502670" lon="7.894886">
        <ele>620.671027</ele>
        <time>2021-11-22T20:32:21.658Z</time>
      </trkpt>
      <trkpt lat="47.502670" lon="7.894886">
        <ele>620.671027</ele>
        <time>2021-11-22T20:32:21.712Z</time>
      </trkpt>
      <trkpt lat="47.502517" lon="7.894597">
        <ele>620.700209</ele>
        <time>2021-11-22T20:32:27.316Z</time>
      </trkpt>
      <trkpt lat="47.502453" lon="7.894433">
        <ele>620.715262</ele>
        <time>2021-11-22T20:32:28.673Z</time>
      </trkpt>
      <trkpt lat="47.502224" lon="7.893360">
        <ele>619.954679</ele>
        <time>2021-11-22T20:32:38.065Z</time>
      </trkpt>
      <trkpt lat="47.502213" lon="7.892998">
        <ele>618.511780</ele>
        <time>2021-11-22T20:32:40.706Z</time>
      </trkpt>
      <trkpt lat="47.502217" lon="7.892900">
        <ele>618.120844</ele>
        <time>2021-11-22T20:32:41.295Z</time>
      </trkpt>
      <trkpt lat="47.502142" lon="7.892201">
        <ele>615.302619</ele>
        <time>2021-11-22T20:32:45.838Z</time>
      </trkpt>
      <trkpt lat="47.501593" lon="7.891145">
        <ele>609.885062</ele>
        <time>2021-11-22T20:32:53.756Z</time>
      </trkpt>
      <trkpt lat="47.501490" lon="7.890827">
        <ele>607.654365</ele>
        <time>2021-11-22T20:32:55.798Z</time>
      </trkpt>
      <trkpt lat="47.501442" lon="7.890291">
        <ele>604.234317</ele>
        <time>2021-11-22T20:32:58.946Z</time>
      </trkpt>
      <trkpt lat="47.501468" lon="7.889658">
        <ele>600.222974</ele>
        <time>2021-11-22T20:33:02.651Z</time>
      </trkpt>
      <trkpt lat="47.501460" lon="7.889185">
        <ele>597.230143</ele>
        <time>2021-11-22T20:33:05.418Z</time>
      </trkpt>
      <trkpt lat="47.501458" lon="7.889097">
        <ele>596.673197</ele>
        <time>2021-11-22T20:33:05.918Z</time>
      </trkpt>
      <trkpt lat="47.501229" lon="7.887595">
        <ele>588.238528</ele>
        <time>2021-11-22T20:33:15.040Z</time>
      </trkpt>
      <trkpt lat="47.501173" lon="7.887242">
        <ele>586.411700</ele>
        <time>2021-11-22T20:33:17.199Z</time>
      </trkpt>
      <trkpt lat="47.501169" lon="7.887028">
        <ele>585.333132</ele>
        <time>2021-11-22T20:33:18.470Z</time>
      </trkpt>
      <trkpt lat="47.501203" lon="7.886606">
        <ele>583.191984</ele>
        <time>2021-11-22T20:33:21.175Z</time>
      </trkpt>
      <trkpt lat="47.501217" lon="7.886443">
        <ele>582.364163</ele>
        <time>2021-11-22T20:33:22.200Z</time>
      </trkpt>
      <trkpt lat="47.501340" lon="7.885347">
        <ele>576.966163</ele>
        <time>2021-11-22T20:33:29.038Z</time>
      </trkpt>
      <trkpt lat="47.501548" lon="7.884312">
        <ele>571.868631</ele>
        <time>2021-11-22T20:33:35.572Z</time>
      </trkpt>
      <trkpt lat="47.501604" lon="7.883848">
        <ele>569.643550</ele>
        <time>2021-11-22T20:33:38.421Z</time>
      </trkpt>
      <trkpt lat="47.501649" lon="7.883525">
        <ele>568.086681</ele>
        <time>2021-11-22T20:33:40.408Z</time>
      </trkpt>
      <trkpt lat="47.501738" lon="7.883219">
        <ele>566.342768</ele>
        <time>2021-11-22T20:33:42.442Z</time>
      </trkpt>
      <trkpt lat="47.501771" lon="7.883120">
        <ele>565.716678</ele>
        <time>2021-11-22T20:33:43.095Z</time>
      </trkpt>
      <trkpt lat="47.501864" lon="7.882799">
        <ele>563.735828</ele>
        <time>2021-11-22T20:33:45.209Z</time>
      </trkpt>
      <trkpt lat="47.502265" lon="7.881790">
        <ele>557.096711</ele>
        <time>2021-11-22T20:33:52.133Z</time>
      </trkpt>
      <trkpt lat="47.502443" lon="7.881187">
        <ele>553.364705</ele>
        <time>2021-11-22T20:33:56.038Z</time>
      </trkpt>
      <trkpt lat="47.502801" lon="7.880243">
        <ele>546.278012</ele>
        <time>2021-11-22T20:34:02.357Z</time>
      </trkpt>
      <trkpt lat="47.502838" lon="7.880150">
        <ele>545.550879</ele>
        <time>2021-11-22T20:34:02.972Z</time>
      </trkpt>
      <trkpt lat="47.502894" lon="7.880014">
        <ele>544.477844</ele>
        <time>2021-11-22T20:34:03.894Z</time>
      </trkpt>
      <trkpt lat="47.503005" lon="7.879648">
        <ele>541.774980</ele>
        <time>2021-11-22T20:34:06.225Z</time>
      </trkpt>
      <trkpt lat="47.503076" lon="7.878993">
        <ele>537.305736</ele>
        <time>2021-11-22T20:34:10.073Z</time>
      </trkpt>
      <trkpt lat="47.503079" lon="7.878798">
        <ele>535.991662</ele>
        <time>2021-11-22T20:34:11.210Z</time>
      </trkpt>
      <trkpt lat="47.503165" lon="7.878375">
        <ele>533.107908</ele>
        <time>2021-11-22T20:34:13.757Z</time>
      </trkpt>
      <trkpt lat="47.503455" lon="7.877034">
        <ele>524.289429</ele>
        <time>2021-11-22T20:34:22.006Z</time>
      </trkpt>
      <trkpt lat="47.503619" lon="7.876694">
        <ele>521.672930</ele>
        <time>2021-11-22T20:34:24.418Z</time>
      </trkpt>
      <trkpt lat="47.504101" lon="7.875980">
        <ele>516.392412</ele>
        <time>2021-11-22T20:34:30.422Z</time>
      </trkpt>
      <trkpt lat="47.504368" lon="7.875216">
        <ele>513.443165</ele>
        <time>2021-11-22T20:34:35.705Z</time>
      </trkpt>
      <trkpt lat="47.504456" lon="7.874954">
        <ele>512.439957</ele>
        <time>2021-11-22T20:34:37.485Z</time>
      </trkpt>
      <trkpt lat="47.504138" lon="7.874810">
        <ele>510.752144</ele>
        <time>2021-11-22T20:34:40.768Z</time>
      </trkpt>
      <trkpt lat="47.503780" lon="7.874762">
        <ele>508.927702</ele>
        <time>2021-11-22T20:34:44.574Z</time>
      </trkpt>
      <trkpt lat="47.503258" lon="7.874914">
        <ele>509.683470</ele>
        <time>2021-11-22T20:34:51.604Z</time>
      </trkpt>
      <trkpt lat="47.502952" lon="7.875026">
        <ele>510.492138</ele>
        <time>2021-11-22T20:34:56.716Z</time>
      </trkpt>
      <trkpt lat="47.502842" lon="7.875099">
        <ele>510.801400</ele>
        <time>2021-11-22T20:35:00.893Z</time>
      </trkpt>
      <trkpt lat="47.502590" lon="7.875352">
        <ele>511.582561</ele>
        <time>2021-11-22T20:35:09.148Z</time>
      </trkpt>
      <trkpt lat="47.501223" lon="7.877550">
        <ele>522.275797</ele>
        <time>2021-11-22T20:36:28.018Z</time>
      </trkpt>
      <trkpt lat="47.500871" lon="7.877817">
        <ele>524.869727</ele>
        <time>2021-11-22T20:36:45.654Z</time>
      </trkpt>
      <trkpt lat="47.500646" lon="7.877870">
        <ele>527.207975</ele>
        <time>2021-11-22T20:36:56.430Z</time>
      </trkpt>
      <trkpt lat="47.500435" lon="7.877886">
        <ele>529.376323</ele>
        <time>2021-11-22T20:37:05.253Z</time>
      </trkpt>
      <trkpt lat="47.500406" lon="7.877881">
        <ele>529.675965</ele>
        <time>2021-11-22T20:37:06.387Z</time>
      </trkpt>
      <trkpt lat="47.500301" lon="7.877860">
        <ele>530.763380</ele>
        <time>2021-11-22T20:37:12.327Z</time>
      </trkpt>
      <trkpt lat="47.499321" lon="7.877227">
        <ele>541.737120</ele>
        <time>2021-11-22T20:38:17.524Z</time>
      </trkpt>
      <trkpt lat="47.499098" lon="7.877132">
        <ele>544.399036</ele>
        <time>2021-11-22T20:38:31.007Z</time>
      </trkpt>
      <trkpt lat="47.498805" lon="7.877120">
        <ele>548.362575</ele>
        <time>2021-11-22T20:38:49.702Z</time>
      </trkpt>
      <trkpt lat="47.498728" lon="7.877133">
        <ele>549.410541</ele>
        <time>2021-11-22T20:38:55.765Z</time>
      </trkpt>
      <trkpt lat="47.498622" lon="7.877161">
        <ele>550.866547</ele>
        <time>2021-11-22T20:39:03.513Z</time>
      </trkpt>
      <trkpt lat="47.498351" lon="7.877306">
        <ele>554.763161</ele>
        <time>2021-11-22T20:39:21.231Z</time>
      </trkpt>
      <trkpt lat="47.498148" lon="7.877525">
        <ele>558.159939</ele>
        <time>2021-11-22T20:39:36.077Z</time>
      </trkpt>
      <trkpt lat="47.497693" lon="7.878386">
        <ele>568.094238</ele>
        <time>2021-11-22T20:40:35.532Z</time>
      </trkpt>
      <trkpt lat="47.497250" lon="7.878931">
        <ele>575.194138</ele>
        <time>2021-11-22T20:41:19.949Z</time>
      </trkpt>
      <trkpt lat="47.497148" lon="7.879174">
        <ele>577.576384</ele>
        <time>2021-11-22T20:41:30.707Z</time>
      </trkpt>
      <trkpt lat="47.497087" lon="7.879380">
        <ele>579.449321</ele>
        <time>2021-11-22T20:41:42.715Z</time>
      </trkpt>
      <trkpt lat="47.497046" lon="7.879652">
        <ele>581.770019</ele>
        <time>2021-11-22T20:41:52.899Z</time>
      </trkpt>
      <trkpt lat="47.496934" lon="7.880335">
        <ele>587.622662</ele>
        <time>2021-11-22T20:42:20.891Z</time>
      </trkpt>
      <trkpt lat="47.496817" lon="7.881208">
        <ele>590.927038</ele>
        <time>2021-11-22T20:42:49.282Z</time>
      </trkpt>
      <trkpt lat="47.496775" lon="7.881742">
        <ele>591.939836</ele>
        <time>2021-11-22T20:43:03.298Z</time>
      </trkpt>
      <trkpt lat="47.496758" lon="7.882064">
        <ele>592.548302</ele>
        <time>2021-11-22T20:43:07.234Z</time>
      </trkpt>
      <trkpt lat="47.496733" lon="7.882493">
        <ele>593.359497</ele>
        <time>2021-11-22T20:43:11.576Z</time>
      </trkpt>
      <trkpt lat="47.496732" lon="7.882629">
        <ele>593.615724</ele>
        <time>2021-11-22T20:43:14.407Z</time>
      </trkpt>
      <trkpt lat="47.496724" lon="7.882743">
        <ele>593.831644</ele>
        <time>2021-11-22T20:43:15.415Z</time>
      </trkpt>
      <trkpt lat="47.496734" lon="7.882969">
        <ele>594.258319</ele>
        <time>2021-11-22T20:43:17.288Z</time>
      </trkpt>
      <trkpt lat="47.496687" lon="7.883397">
        <ele>594.103962</ele>
        <time>2021-11-22T20:43:20.297Z</time>
      </trkpt>
      <trkpt lat="47.496652" lon="7.883465">
        <ele>593.796281</ele>
        <time>2021-11-22T20:43:21.276Z</time>
      </trkpt>
      <trkpt lat="47.496581" lon="7.883536">
        <ele>593.339808</ele>
        <time>2021-11-22T20:43:22.056Z</time>
      </trkpt>
      <trkpt lat="47.496049" lon="7.883820">
        <ele>590.326999</ele>
        <time>2021-11-22T20:43:27.627Z</time>
      </trkpt>
      <trkpt lat="47.496049" lon="7.883820">
        <ele>590.326999</ele>
        <time>2021-11-22T20:43:27.641Z</time>
      </trkpt>
      <trkpt lat="47.495454" lon="7.883705">
        <ele>587.130370</ele>
        <time>2021-11-22T20:43:33.105Z</time>
      </trkpt>
      <trkpt lat="47.494764" lon="7.884042">
        <ele>581.910262</ele>
        <time>2021-11-22T20:43:39.540Z</time>
      </trkpt>
      <trkpt lat="47.494367" lon="7.884261">
        <ele>578.050385</ele>
        <time>2021-11-22T20:43:43.285Z</time>
      </trkpt>
      <trkpt lat="47.494186" lon="7.884344">
        <ele>576.324071</ele>
        <time>2021-11-22T20:43:44.921Z</time>
      </trkpt>
      <trkpt lat="47.493814" lon="7.884597">
        <ele>572.594311</ele>
        <time>2021-11-22T20:43:48.452Z</time>
      </trkpt>
      <trkpt lat="47.493304" lon="7.885334">
        <ele>565.674309</ele>
        <time>2021-11-22T20:43:54.579Z</time>
      </trkpt>
      <trkpt lat="47.493060" lon="7.885635">
        <ele>562.319015</ele>
        <time>2021-11-22T20:43:57.258Z</time>
      </trkpt>
      <trkpt lat="47.492927" lon="7.885817">
        <ele>560.405638</ele>
        <time>2021-11-22T20:43:58.789Z</time>
      </trkpt>
      <trkpt lat="47.492348" lon="7.886838">
        <ele>550.892092</ele>
        <time>2021-11-22T20:44:06.537Z</time>
      </trkpt>
      <trkpt lat="47.492288" lon="7.886983">
        <ele>549.696438</ele>
        <time>2021-11-22T20:44:07.505Z</time>
      </trkpt>
      <trkpt lat="47.492246" lon="7.887099">
        <ele>548.932715</ele>
        <time>2021-11-22T20:44:08.277Z</time>
      </trkpt>
      <trkpt lat="47.492175" lon="7.887289">
        <ele>547.672725</ele>
        <time>2021-11-22T20:44:09.540Z</time>
      </trkpt>
      <trkpt lat="47.491962" lon="7.888038">
        <ele>542.956856</ele>
        <time>2021-11-22T20:44:14.339Z</time>
      </trkpt>
      <trkpt lat="47.491769" lon="7.889166">
        <ele>536.204219</ele>
        <time>2021-11-22T20:44:21.255Z</time>
      </trkpt>
      <trkpt lat="47.491698" lon="7.889463">
        <ele>534.375969</ele>
        <time>2021-11-22T20:44:23.106Z</time>
      </trkpt>
      <trkpt lat="47.491657" lon="7.889588">
        <ele>533.590272</ele>
        <time>2021-11-22T20:44:23.999Z</time>
      </trkpt>
      <trkpt lat="47.491390" lon="7.890064">
        <ele>530.098111</ele>
        <time>2021-11-22T20:44:27.809Z</time>
      </trkpt>
      <trkpt lat="47.491152" lon="7.890269">
        <ele>527.797585</ele>
        <time>2021-11-22T20:44:30.280Z</time>
      </trkpt>
      <trkpt lat="47.491016" lon="7.890331">
        <ele>526.608737</ele>
        <time>2021-11-22T20:44:31.563Z</time>
      </trkpt>
      <trkpt lat="47.490978" lon="7.890353">
        <ele>526.267853</ele>
        <time>2021-11-22T20:44:31.899Z</time>
      </trkpt>
      <trkpt lat="47.490438" lon="7.890555">
        <ele>521.614731</ele>
        <time>2021-11-22T20:44:36.773Z</time>
      </trkpt>
      <trkpt lat="47.489665" lon="7.890612">
        <ele>515.339055</ele>
        <time>2021-11-22T20:44:43.441Z</time>
      </trkpt>
      <trkpt lat="47.489379" lon="7.890627">
        <ele>513.057739</ele>
        <time>2021-11-22T20:44:45.888Z</time>
      </trkpt>
      <trkpt lat="47.488950" lon="7.890650">
        <ele>509.635669</ele>
        <time>2021-11-22T20:44:49.705Z</time>
      </trkpt>
      <trkpt lat="47.488715" lon="7.890673">
        <ele>507.758244</ele>
        <time>2021-11-22T20:44:51.863Z</time>
      </trkpt>
      <trkpt lat="47.488680" lon="7.890697">
        <ele>507.450741</ele>
        <time>2021-11-22T20:44:52.186Z</time>
      </trkpt>
      <trkpt lat="47.488595" lon="7.890769">
        <ele>506.670005</ele>
        <time>2021-11-22T20:44:53.160Z</time>
      </trkpt>
      <trkpt lat="47.488499" lon="7.890970">
        <ele>505.344126</ele>
        <time>2021-11-22T20:44:54.730Z</time>
      </trkpt>
      <trkpt lat="47.488495" lon="7.891186">
        <ele>504.629359</ele>
        <time>2021-11-22T20:44:56.033Z</time>
      </trkpt>
      <trkpt lat="47.488799" lon="7.891910">
        <ele>502.674588</ele>
        <time>2021-11-22T20:45:01.717Z</time>
      </trkpt>
      <trkpt lat="47.488835" lon="7.892066">
        <ele>502.296550</ele>
        <time>2021-11-22T20:45:02.700Z</time>
      </trkpt>
      <trkpt lat="47.488809" lon="7.892200">
        <ele>501.976833</ele>
        <time>2021-11-22T20:45:03.869Z</time>
      </trkpt>
      <trkpt lat="47.488707" lon="7.892577">
        <ele>501.045542</ele>
        <time>2021-11-22T20:45:06.584Z</time>
      </trkpt>
      <trkpt lat="47.488649" lon="7.892618">
        <ele>500.827400</ele>
        <time>2021-11-22T20:45:07.703Z</time>
      </trkpt>
      <trkpt lat="47.488571" lon="7.892671">
        <ele>500.536117</ele>
        <time>2021-11-22T20:45:09.195Z</time>
      </trkpt>
      <trkpt lat="47.488402" lon="7.893037">
        <ele>499.519528</ele>
        <time>2021-11-22T20:45:12.532Z</time>
      </trkpt>
      <trkpt lat="47.488323" lon="7.893133">
        <ele>499.172613</ele>
        <time>2021-11-22T20:45:14.237Z</time>
      </trkpt>
      <trkpt lat="47.488250" lon="7.893055">
        <ele>498.867041</ele>
        <time>2021-11-22T20:45:15.092Z</time>
      </trkpt>
      <trkpt lat="47.488168" lon="7.892899">
        <ele>498.515351</ele>
        <time>2021-11-22T20:45:16.705Z</time>
      </trkpt>
      <trkpt lat="47.488137" lon="7.892763">
        <ele>498.261412</ele>
        <time>2021-11-22T20:45:18.275Z</time>
      </trkpt>
      <trkpt lat="47.488084" lon="7.892534">
        <ele>497.833150</ele>
        <time>2021-11-22T20:45:19.879Z</time>
      </trkpt>
      <trkpt lat="47.487680" lon="7.891282">
        <ele>495.378444</ele>
        <time>2021-11-22T20:45:30.076Z</time>
      </trkpt>
      <trkpt lat="47.487518" lon="7.890485">
        <ele>493.807597</ele>
        <time>2021-11-22T20:45:35.496Z</time>
      </trkpt>
      <trkpt lat="47.487490" lon="7.890449">
        <ele>493.671189</ele>
        <time>2021-11-22T20:45:35.867Z</time>
      </trkpt>
      <trkpt lat="47.487367" lon="7.890321">
        <ele>493.118198</ele>
        <time>2021-11-22T20:45:37.348Z</time>
      </trkpt>
      <trkpt lat="47.486940" lon="7.889619">
        <ele>490.770977</ele>
        <time>2021-11-22T20:45:43.818Z</time>
      </trkpt>
      <trkpt lat="47.486763" lon="7.889251">
        <ele>489.648439</ele>
        <time>2021-11-22T20:45:46.955Z</time>
      </trkpt>
      <trkpt lat="47.486746" lon="7.889218">
        <ele>489.545316</ele>
        <time>2021-11-22T20:45:47.195Z</time>
      </trkpt>
      <trkpt lat="47.486185" lon="7.888073">
        <ele>485.717828</ele>
        <time>2021-11-22T20:45:56.510Z</time>
      </trkpt>
      <trkpt lat="47.485991" lon="7.887744">
        <ele>484.407011</ele>
        <time>2021-11-22T20:45:59.343Z</time>
      </trkpt>
      <trkpt lat="47.485842" lon="7.887493">
        <ele>483.404055</ele>
        <time>2021-11-22T20:46:01.432Z</time>
      </trkpt>
      <trkpt lat="47.485824" lon="7.887463">
        <ele>483.283617</ele>
        <time>2021-11-22T20:46:01.690Z</time>
      </trkpt>
      <trkpt lat="47.485730" lon="7.887323">
        <ele>482.691147</ele>
        <time>2021-11-22T20:46:02.971Z</time>
      </trkpt>
      <trkpt lat="47.484923" lon="7.886213">
        <ele>478.125347</ele>
        <time>2021-11-22T20:46:13.584Z</time>
      </trkpt>
      <trkpt lat="47.484859" lon="7.886144">
        <ele>477.839758</ele>
        <time>2021-11-22T20:46:14.300Z</time>
      </trkpt>
      <trkpt lat="47.484724" lon="7.885990">
        <ele>477.224983</ele>
        <time>2021-11-22T20:46:16.097Z</time>
      </trkpt>
      <trkpt lat="47.484124" lon="7.885514">
        <ele>474.769637</ele>
        <time>2021-11-22T20:46:23.002Z</time>
      </trkpt>
      <trkpt lat="47.483644" lon="7.884992">
        <ele>472.739014</ele>
        <time>2021-11-22T20:46:28.887Z</time>
      </trkpt>
      <trkpt lat="47.483551" lon="7.884901">
        <ele>472.445592</ele>
        <time>2021-11-22T20:46:30.036Z</time>
      </trkpt>
      <trkpt lat="47.483495" lon="7.884861">
        <ele>472.281943</ele>
        <time>2021-11-22T20:46:30.838Z</time>
      </trkpt>
      <trkpt lat="47.483344" lon="7.884768">
        <ele>471.851505</ele>
        <time>2021-11-22T20:46:32.470Z</time>
      </trkpt>
      <trkpt lat="47.482795" lon="7.884621">
        <ele>470.383225</ele>
        <time>2021-11-22T20:46:38.460Z</time>
      </trkpt>
      <trkpt lat="47.482343" lon="7.884501">
        <ele>469.174692</ele>
        <time>2021-11-22T20:46:43.272Z</time>
      </trkpt>
      <trkpt lat="47.482094" lon="7.884439">
        <ele>468.510180</ele>
        <time>2021-11-22T20:46:45.997Z</time>
      </trkpt>
      <trkpt lat="47.481625" lon="7.884355">
        <ele>467.500627</ele>
        <time>2021-11-22T20:46:51.068Z</time>
      </trkpt>
      <trkpt lat="47.481202" lon="7.884417">
        <ele>466.629430</ele>
        <time>2021-11-22T20:46:55.638Z</time>
      </trkpt>
      <trkpt lat="47.481022" lon="7.884472">
        <ele>466.252730</ele>
        <time>2021-11-22T20:46:57.532Z</time>
      </trkpt>
      <trkpt lat="47.480931" lon="7.884489">
        <ele>466.064741</ele>
        <time>2021-11-22T20:46:58.598Z</time>
      </trkpt>
      <trkpt lat="47.480537" lon="7.884477">
        <ele>465.257053</ele>
        <time>2021-11-22T20:47:02.979Z</time>
      </trkpt>
      <trkpt lat="47.479813" lon="7.884128">
        <ele>464.264636</ele>
        <time>2021-11-22T20:47:11.766Z</time>
      </trkpt>
      <trkpt lat="47.479273" lon="7.883853">
        <ele>463.801196</ele>
        <time>2021-11-22T20:47:18.636Z</time>
      </trkpt>
      <trkpt lat="47.479105" lon="7.883776">
        <ele>463.658473</ele>
        <time>2021-11-22T20:47:20.808Z</time>
      </trkpt>
      <trkpt lat="47.478811" lon="7.883733">
        <ele>463.418728</ele>
        <time>2021-11-22T20:47:24.570Z</time>
      </trkpt>
      <trkpt lat="47.478579" lon="7.883777">
        <ele>463.228920</ele>
        <time>2021-11-22T20:47:27.618Z</time>
      </trkpt>
      <trkpt lat="47.477249" lon="7.884423">
        <ele>465.764685</ele>
        <time>2021-11-22T20:47:54.079Z</time>
      </trkpt>
      <trkpt lat="47.476108" lon="7.884690">
        <ele>470.321023</ele>
        <time>2021-11-22T20:48:33.806Z</time>
      </trkpt>
      <trkpt lat="47.475795" lon="7.884698">
        <ele>471.975090</ele>
        <time>2021-11-22T20:48:45.824Z</time>
      </trkpt>
      <trkpt lat="47.475660" lon="7.884681">
        <ele>472.690978</ele>
        <time>2021-11-22T20:48:51.399Z</time>
      </trkpt>
      <trkpt lat="47.475395" lon="7.884643">
        <ele>474.097739</ele>
        <time>2021-11-22T20:49:01.985Z</time>
      </trkpt>
      <trkpt lat="47.474825" lon="7.884590">
        <ele>476.786722</ele>
        <time>2021-11-22T20:49:22.495Z</time>
      </trkpt>
      <trkpt lat="47.474703" lon="7.884534">
        <ele>477.228703</ele>
        <time>2021-11-22T20:49:28.108Z</time>
      </trkpt>
      <trkpt lat="47.474508" lon="7.884402">
        <ele>477.970690</ele>
        <time>2021-11-22T20:49:34.939Z</time>
      </trkpt>
      <trkpt lat="47.473290" lon="7.883592">
        <ele>482.241379</ele>
        <time>2021-11-22T20:50:11.272Z</time>
      </trkpt>
      <trkpt lat="47.473082" lon="7.883408">
        <ele>481.646954</ele>
        <time>2021-11-22T20:50:14.984Z</time>
      </trkpt>
      <trkpt lat="47.472670" lon="7.883027">
        <ele>480.455229</ele>
        <time>2021-11-22T20:50:21.703Z</time>
      </trkpt>
      <trkpt lat="47.471932" lon="7.882355">
        <ele>478.329682</ele>
        <time>2021-11-22T20:50:30.693Z</time>
      </trkpt>
      <trkpt lat="47.471600" lon="7.881776">
        <ele>473.324853</ele>
        <time>2021-11-22T20:50:35.092Z</time>
      </trkpt>
      <trkpt lat="47.471472" lon="7.881494">
        <ele>470.427963</ele>
        <time>2021-11-22T20:50:37.113Z</time>
      </trkpt>
      <trkpt lat="47.471451" lon="7.881438">
        <ele>469.881806</ele>
        <time>2021-11-22T20:50:37.489Z</time>
      </trkpt>
      <trkpt lat="47.471376" lon="7.881235">
        <ele>467.908831</ele>
        <time>2021-11-22T20:50:38.783Z</time>
      </trkpt>
      <trkpt lat="47.471173" lon="7.880721">
        <ele>462.831879</ele>
        <time>2021-11-22T20:50:42.149Z</time>
      </trkpt>
      <trkpt lat="47.471143" lon="7.880602">
        <ele>461.748718</ele>
        <time>2021-11-22T20:50:42.864Z</time>
      </trkpt>
      <trkpt lat="47.471122" lon="7.880528">
        <ele>461.064257</ele>
        <time>2021-11-22T20:50:43.313Z</time>
      </trkpt>
      <trkpt lat="47.471056" lon="7.880271">
        <ele>458.719611</ele>
        <time>2021-11-22T20:50:44.843Z</time>
      </trkpt>
      <trkpt lat="47.470688" lon="7.879298">
        <ele>449.069456</ele>
        <time>2021-11-22T20:50:51.079Z</time>
      </trkpt>
      <trkpt lat="47.470641" lon="7.879203">
        <ele>448.042049</ele>
        <time>2021-11-22T20:50:51.741Z</time>
      </trkpt>
      <trkpt lat="47.470626" lon="7.879175">
        <ele>447.730256</ele>
        <time>2021-11-22T20:50:51.938Z</time>
      </trkpt>
      <trkpt lat="47.470496" lon="7.878920">
        <ele>444.942892</ele>
        <time>2021-11-22T20:50:53.737Z</time>
      </trkpt>
      <trkpt lat="47.470372" lon="7.878664">
        <ele>442.194380</ele>
        <time>2021-11-22T20:50:55.505Z</time>
      </trkpt>
      <trkpt lat="47.470277" lon="7.878469">
        <ele>440.096664</ele>
        <time>2021-11-22T20:50:56.874Z</time>
      </trkpt>
      <trkpt lat="47.470106" lon="7.878102">
        <ele>436.206631</ele>
        <time>2021-11-22T20:50:59.452Z</time>
      </trkpt>
      <trkpt lat="47.469549" lon="7.877073">
        <ele>429.186307</ele>
        <time>2021-11-22T20:51:07.344Z</time>
      </trkpt>
      <trkpt lat="47.469512" lon="7.877020">
        <ele>428.926591</ele>
        <time>2021-11-22T20:51:07.791Z</time>
      </trkpt>
      <trkpt lat="47.469475" lon="7.876966">
        <ele>428.664492</ele>
        <time>2021-11-22T20:51:08.289Z</time>
      </trkpt>
      <trkpt lat="47.469413" lon="7.876875">
        <ele>428.224068</ele>
        <time>2021-11-22T20:51:09.171Z</time>
      </trkpt>
      <trkpt lat="47.469384" lon="7.876836">
        <ele>428.026432</ele>
        <time>2021-11-22T20:51:10.011Z</time>
      </trkpt>
      <trkpt lat="47.469354" lon="7.876797">
        <ele>427.825037</ele>
        <time>2021-11-22T20:51:10.365Z</time>
      </trkpt>
      <trkpt lat="47.469265" lon="7.876688">
        <ele>427.242388</ele>
        <time>2021-11-22T20:51:11.465Z</time>
      </trkpt>
      <trkpt lat="47.468740" lon="7.876159">
        <ele>424.039163</ele>
        <time>2021-11-22T20:51:18.004Z</time>
      </trkpt>
      <trkpt lat="47.468698" lon="7.876140">
        <ele>423.817687</ele>
        <time>2021-11-22T20:51:18.424Z</time>
      </trkpt>
      <trkpt lat="47.468806" lon="7.875696">
        <ele>422.650267</ele>
        <time>2021-11-22T20:51:21.756Z</time>
      </trkpt>
      <trkpt lat="47.468806" lon="7.875696">
        <ele>422.650267</ele>
        <time>2021-11-22T20:51:21.759Z</time>
      </trkpt>
      <trkpt lat="47.468925" lon="7.875205">
        <ele>421.876073</ele>
        <time>2021-11-22T20:51:25.481Z</time>
      </trkpt>
      <trkpt lat="47.468989" lon="7.874967">
        <ele>421.495896</ele>
        <time>2021-11-22T20:51:27.250Z</time>
      </trkpt>
      <trkpt lat="47.469050" lon="7.874738">
        <ele>421.130565</ele>
        <time>2021-11-22T20:51:29.274Z</time>
      </trkpt>
      <trkpt lat="47.469068" lon="7.874689">
        <ele>421.047791</ele>
        <time>2021-11-22T20:51:29.683Z</time>
      </trkpt>
      <trkpt lat="47.469097" lon="7.874606">
        <ele>420.909116</ele>
        <time>2021-11-22T20:51:30.316Z</time>
      </trkpt>
      <trkpt lat="47.469136" lon="7.874516">
        <ele>420.750443</ele>
        <time>2021-11-22T20:51:31.097Z</time>
      </trkpt>
      <trkpt lat="47.469173" lon="7.874432">
        <ele>420.601633</ele>
        <time>2021-11-22T20:51:31.883Z</time>
      </trkpt>
      <trkpt lat="47.469224" lon="7.874328">
        <ele>420.410932</ele>
        <time>2021-11-22T20:51:32.971Z</time>
      </trkpt>
      <trkpt lat="47.469422" lon="7.873965">
        <ele>419.718626</ele>
        <time>2021-11-22T20:51:36.385Z</time>
      </trkpt>
      <trkpt lat="47.469489" lon="7.873809">
        <ele>419.444303</ele>
        <time>2021-11-22T20:51:37.803Z</time>
      </trkpt>
      <trkpt lat="47.469626" lon="7.873477">
        <ele>418.900763</ele>
        <time>2021-11-22T20:51:40.700Z</time>
      </trkpt>
      <trkpt lat="47.469682" lon="7.873326">
        <ele>418.694699</ele>
        <time>2021-11-22T20:51:42.048Z</time>
      </trkpt>
      <trkpt lat="47.469710" lon="7.873249">
        <ele>418.590089</ele>
        <time>2021-11-22T20:51:42.629Z</time>
      </trkpt>
      <trkpt lat="47.469969" lon="7.872276">
        <ele>417.338958</ele>
        <time>2021-11-22T20:51:50.614Z</time>
      </trkpt>
      <trkpt lat="47.470156" lon="7.871491">
        <ele>416.343152</ele>
        <time>2021-11-22T20:51:56.911Z</time>
      </trkpt>
      <trkpt lat="47.470217" lon="7.871214">
        <ele>415.994600</ele>
        <time>2021-11-22T20:51:59.077Z</time>
      </trkpt>
      <trkpt lat="47.470245" lon="7.871088">
        <ele>415.844632</ele>
        <time>2021-11-22T20:52:00.075Z</time>
      </trkpt>
      <trkpt lat="47.470316" lon="7.870753">
        <ele>415.592279</ele>
        <time>2021-11-22T20:52:02.950Z</time>
      </trkpt>
      <trkpt lat="47.470333" lon="7.870669">
        <ele>415.529252</ele>
        <time>2021-11-22T20:52:03.567Z</time>
      </trkpt>
      <trkpt lat="47.470350" lon="7.870570">
        <ele>415.455832</ele>
        <time>2021-11-22T20:52:04.360Z</time>
      </trkpt>
      <trkpt lat="47.470379" lon="7.870338">
        <ele>415.286245</ele>
        <time>2021-11-22T20:52:06.347Z</time>
      </trkpt>
      <trkpt lat="47.470397" lon="7.870147">
        <ele>415.147628</ele>
        <time>2021-11-22T20:52:08.442Z</time>
      </trkpt>
      <trkpt lat="47.470378" lon="7.869626">
        <ele>414.772594</ele>
        <time>2021-11-22T20:52:14.460Z</time>
      </trkpt>
      <trkpt lat="47.470309" lon="7.869201">
        <ele>414.458420</ele>
        <time>2021-11-22T20:52:19.821Z</time>
      </trkpt>
      <trkpt lat="47.470234" lon="7.868884">
        <ele>414.217009</ele>
        <time>2021-11-22T20:52:23.829Z</time>
      </trkpt>
      <trkpt lat="47.470127" lon="7.868484">
        <ele>413.916693</ele>
        <time>2021-11-22T20:52:29.244Z</time>
      </trkpt>
      <trkpt lat="47.469915" lon="7.867494">
        <ele>413.347882</ele>
        <time>2021-11-22T20:52:42.411Z</time>
      </trkpt>
      <trkpt lat="47.469808" lon="7.866690">
        <ele>412.899052</ele>
        <time>2021-11-22T20:52:52.135Z</time>
      </trkpt>
      <trkpt lat="47.469764" lon="7.866452">
        <ele>412.763904</ele>
        <time>2021-11-22T20:52:55.146Z</time>
      </trkpt>
      <trkpt lat="47.469710" lon="7.866208">
        <ele>412.623277</ele>
        <time>2021-11-22T20:52:58.112Z</time>
      </trkpt>
      <trkpt lat="47.469629" lon="7.865918">
        <ele>412.412597</ele>
        <time>2021-11-22T20:53:01.867Z</time>
      </trkpt>
      <trkpt lat="47.469305" lon="7.864692">
        <ele>410.921927</ele>
        <time>2021-11-22T20:53:16.266Z</time>
      </trkpt>
      <trkpt lat="47.469011" lon="7.863405">
        <ele>409.390207</ele>
        <time>2021-11-22T20:53:30.977Z</time>
      </trkpt>
      <trkpt lat="47.468986" lon="7.863323">
        <ele>409.295807</ele>
        <time>2021-11-22T20:53:31.833Z</time>
      </trkpt>
      <trkpt lat="47.468943" lon="7.863195">
        <ele>409.145808</ele>
        <time>2021-11-22T20:53:33.381Z</time>
      </trkpt>
      <trkpt lat="47.468859" lon="7.862978">
        <ele>408.883388</ele>
        <time>2021-11-22T20:53:36.144Z</time>
      </trkpt>
      <trkpt lat="47.468825" lon="7.862900">
        <ele>408.785990</ele>
        <time>2021-11-22T20:53:37.121Z</time>
      </trkpt>
      <trkpt lat="47.468543" lon="7.862357">
        <ele>408.067398</ele>
        <time>2021-11-22T20:53:44.531Z</time>
      </trkpt>
      <trkpt lat="47.468224" lon="7.861805">
        <ele>407.305280</ele>
        <time>2021-11-22T20:53:52.693Z</time>
      </trkpt>
      <trkpt lat="47.467944" lon="7.861300">
        <ele>406.644109</ele>
        <time>2021-11-22T20:54:00.066Z</time>
      </trkpt>
      <trkpt lat="47.467266" lon="7.860107">
        <ele>405.642952</ele>
        <time>2021-11-22T20:54:18.777Z</time>
      </trkpt>
      <trkpt lat="47.467047" lon="7.859682">
        <ele>405.299680</ele>
        <time>2021-11-22T20:54:24.979Z</time>
      </trkpt>
      <trkpt lat="47.466922" lon="7.859398">
        <ele>405.081990</ele>
        <time>2021-11-22T20:54:28.943Z</time>
      </trkpt>
      <trkpt lat="47.466824" lon="7.859137">
        <ele>404.868385</ele>
        <time>2021-11-22T20:54:32.642Z</time>
      </trkpt>
      <trkpt lat="47.466673" lon="7.858620">
        <ele>404.411579</ele>
        <time>2021-11-22T20:54:39.196Z</time>
      </trkpt>
      <trkpt lat="47.466576" lon="7.858236">
        <ele>404.079079</ele>
        <time>2021-11-22T20:54:44.054Z</time>
      </trkpt>
      <trkpt lat="47.466518" lon="7.858022">
        <ele>403.892071</ele>
        <time>2021-11-22T20:54:45.973Z</time>
      </trkpt>
      <trkpt lat="47.466347" lon="7.856973">
        <ele>403.016828</ele>
        <time>2021-11-22T20:54:54.538Z</time>
      </trkpt>
      <trkpt lat="47.466344" lon="7.856945">
        <ele>402.993834</ele>
        <time>2021-11-22T20:54:54.720Z</time>
      </trkpt>
      <trkpt lat="47.466322" lon="7.856655">
        <ele>402.736655</ele>
        <time>2021-11-22T20:54:57.087Z</time>
      </trkpt>
      <trkpt lat="47.466310" lon="7.856541">
        <ele>402.610079</ele>
        <time>2021-11-22T20:54:57.949Z</time>
      </trkpt>
      <trkpt lat="47.466334" lon="7.856525">
        <ele>402.567357</ele>
        <time>2021-11-22T20:54:58.263Z</time>
      </trkpt>
      <trkpt lat="47.466353" lon="7.856496">
        <ele>402.523051</ele>
        <time>2021-11-22T20:54:58.577Z</time>
      </trkpt>
      <trkpt lat="47.466361" lon="7.856459">
        <ele>402.480432</ele>
        <time>2021-11-22T20:54:58.846Z</time>
      </trkpt>
      <trkpt lat="47.466359" lon="7.856420">
        <ele>402.437522</ele>
        <time>2021-11-22T20:54:59.141Z</time>
      </trkpt>
      <trkpt lat="47.466324" lon="7.856362">
        <ele>402.352227</ele>
        <time>2021-11-22T20:54:59.760Z</time>
      </trkpt>
      <trkpt lat="47.466298" lon="7.856354">
        <ele>402.309129</ele>
        <time>2021-11-22T20:55:00.050Z</time>
      </trkpt>
      <trkpt lat="47.466295" lon="7.856234">
        <ele>402.177386</ele>
        <time>2021-11-22T20:55:01.009Z</time>
      </trkpt>
      <trkpt lat="47.466298" lon="7.855895">
        <ele>401.805436</ele>
        <time>2021-11-22T20:55:03.522Z</time>
      </trkpt>
      <trkpt lat="47.466324" lon="7.855062">
        <ele>400.890576</ele>
        <time>2021-11-22T20:55:09.878Z</time>
      </trkpt>
      <trkpt lat="47.466332" lon="7.854775">
        <ele>400.575440</ele>
        <time>2021-11-22T20:55:12.049Z</time>
      </trkpt>
      <trkpt lat="47.466338" lon="7.854554">
        <ele>400.332785</ele>
        <time>2021-11-22T20:55:13.747Z</time>
      </trkpt>
      <trkpt lat="47.466331" lon="7.853936">
        <ele>399.839714</ele>
        <time>2021-11-22T20:55:18.590Z</time>
      </trkpt>
      <trkpt lat="47.466256" lon="7.853287">
        <ele>399.670681</ele>
        <time>2021-11-22T20:55:23.728Z</time>
      </trkpt>
      <trkpt lat="47.465906" lon="7.851776">
        <ele>399.260626</ele>
        <time>2021-11-22T20:55:39.061Z</time>
      </trkpt>
      <trkpt lat="47.465871" lon="7.851620">
        <ele>399.218429</ele>
        <time>2021-11-22T20:55:40.830Z</time>
      </trkpt>
      <trkpt lat="47.465896" lon="7.851603">
        <ele>399.245668</ele>
        <time>2021-11-22T20:55:41.250Z</time>
      </trkpt>
      <trkpt lat="47.465931" lon="7.851497">
        <ele>399.434551</ele>
        <time>2021-11-22T20:55:42.916Z</time>
      </trkpt>
      <trkpt lat="47.465925" lon="7.851458">
        <ele>399.498593</ele>
        <time>2021-11-22T20:55:43.495Z</time>
      </trkpt>
      <trkpt lat="47.466015" lon="7.851377">
        <ele>399.748108</ele>
        <time>2021-11-22T20:55:46.044Z</time>
      </trkpt>
      <trkpt lat="47.466281" lon="7.851185">
        <ele>400.449119</ele>
        <time>2021-11-22T20:55:52.133Z</time>
      </trkpt>
      <trkpt lat="47.466390" lon="7.851107">
        <ele>400.735902</ele>
        <time>2021-11-22T20:55:54.865Z</time>
      </trkpt>
      <trkpt lat="47.466513" lon="7.851046">
        <ele>401.043158</ele>
        <time>2021-11-22T20:55:57.406Z</time>
      </trkpt>
      <trkpt lat="47.466576" lon="7.851019">
        <ele>401.198507</ele>
        <time>2021-11-22T20:55:59.061Z</time>
      </trkpt>
      <trkpt lat="47.466767" lon="7.850952">
        <ele>401.663428</ele>
        <time>2021-11-22T20:56:03.815Z</time>
      </trkpt>
      <trkpt lat="47.466831" lon="7.850929">
        <ele>401.819418</ele>
        <time>2021-11-22T20:56:05.134Z</time>
      </trkpt>
      <trkpt lat="47.467007" lon="7.850894">
        <ele>402.240016</ele>
        <time>2021-11-22T20:56:10.037Z</time>
      </trkpt>
      <trkpt lat="47.468532" lon="7.850782">
        <ele>407.729100</ele>
        <time>2021-11-22T20:56:57.413Z</time>
      </trkpt>
      <trkpt lat="47.468646" lon="7.850779">
        <ele>408.211355</ele>
        <time>2021-11-22T20:56:59.916Z</time>
      </trkpt>
      <trkpt lat="47.468794" lon="7.850777">
        <ele>408.837368</ele>
        <time>2021-11-22T20:57:06.724Z</time>
      </trkpt>
      <trkpt lat="47.468807" lon="7.850777">
        <ele>408.892353</ele>
        <time>2021-11-22T20:57:06.838Z</time>
      </trkpt>
      <trkpt lat="47.468931" lon="7.850775">
        <ele>409.416859</ele>
        <time>2021-11-22T20:57:12.145Z</time>
      </trkpt>
      <trkpt lat="47.469115" lon="7.850772">
        <ele>410.195160</ele>
        <time>2021-11-22T20:57:18.710Z</time>
      </trkpt>
      <trkpt lat="47.469315" lon="7.850771">
        <ele>411.041092</ele>
        <time>2021-11-22T20:57:25.540Z</time>
      </trkpt>
      <trkpt lat="47.469352" lon="7.850770">
        <ele>411.211194</ele>
        <time>2021-11-22T20:57:25.864Z</time>
      </trkpt>
      <trkpt lat="47.469464" lon="7.850775">
        <ele>411.740223</ele>
        <time>2021-11-22T20:57:31.582Z</time>
      </trkpt>
      <trkpt lat="47.469555" lon="7.850782">
        <ele>412.170444</ele>
        <time>2021-11-22T20:57:33.996Z</time>
      </trkpt>
      <trkpt lat="47.469772" lon="7.850804">
        <ele>413.197375</ele>
        <time>2021-11-22T20:57:42.991Z</time>
      </trkpt>
      <trkpt lat="47.470091" lon="7.850835">
        <ele>414.706723</ele>
        <time>2021-11-22T20:57:54.804Z</time>
      </trkpt>
      <trkpt lat="47.470145" lon="7.850841">
        <ele>414.962393</ele>
        <time>2021-11-22T20:57:58.032Z</time>
      </trkpt>
      <trkpt lat="47.470421" lon="7.850868">
        <ele>416.268325</ele>
        <time>2021-11-22T20:58:08.171Z</time>
      </trkpt>
      <trkpt lat="47.470525" lon="7.850877">
        <ele>416.760182</ele>
        <time>2021-11-22T20:58:12.481Z</time>
      </trkpt>
      <trkpt lat="47.471325" lon="7.850935">
        <ele>420.478867</ele>
        <time>2021-11-22T20:58:44.319Z</time>
      </trkpt>
      <trkpt lat="47.471670" lon="7.851035">
        <ele>422.030937</ele>
        <time>2021-11-22T20:58:57.491Z</time>
      </trkpt>
      <trkpt lat="47.471898" lon="7.851131">
        <ele>423.077489</ele>
        <time>2021-11-22T20:59:07.666Z</time>
      </trkpt>
      <trkpt lat="47.472010" lon="7.851173">
        <ele>423.587586</ele>
        <time>2021-11-22T20:59:11.607Z</time>
      </trkpt>
      <trkpt lat="47.472075" lon="7.851198">
        <ele>423.884089</ele>
        <time>2021-11-22T20:59:14.287Z</time>
      </trkpt>
      <trkpt lat="47.472223" lon="7.851237">
        <ele>424.547765</ele>
        <time>2021-11-22T20:59:20.196Z</time>
      </trkpt>
      <trkpt lat="47.472594" lon="7.851279">
        <ele>426.190450</ele>
        <time>2021-11-22T20:59:33.649Z</time>
      </trkpt>
      <trkpt lat="47.472820" lon="7.851251">
        <ele>427.191690</ele>
        <time>2021-11-22T20:59:41.425Z</time>
      </trkpt>
      <trkpt lat="47.473090" lon="7.851217">
        <ele>428.318726</ele>
        <time>2021-11-22T20:59:50.945Z</time>
      </trkpt>
      <trkpt lat="47.473132" lon="7.851211">
        <ele>428.490254</ele>
        <time>2021-11-22T20:59:52.677Z</time>
      </trkpt>
      <trkpt lat="47.473275" lon="7.851189">
        <ele>429.074699</ele>
        <time>2021-11-22T20:59:58.480Z</time>
      </trkpt>
      <trkpt lat="47.473706" lon="7.851184">
        <ele>430.826814</ele>
        <time>2021-11-22T21:00:13.021Z</time>
      </trkpt>
      <trkpt lat="47.474073" lon="7.851261">
        <ele>432.333636</ele>
        <time>2021-11-22T21:00:25.631Z</time>
      </trkpt>
      <trkpt lat="47.474437" lon="7.851443">
        <ele>433.895555</ele>
        <time>2021-11-22T21:00:39.892Z</time>
      </trkpt>
      <trkpt lat="47.474489" lon="7.851469">
        <ele>434.118686</ele>
        <time>2021-11-22T21:00:41.887Z</time>
      </trkpt>
      <trkpt lat="47.475005" lon="7.851847">
        <ele>437.028724</ele>
        <time>2021-11-22T21:01:05.278Z</time>
      </trkpt>
      <trkpt lat="47.475474" lon="7.852041">
        <ele>439.698124</ele>
        <time>2021-11-22T21:01:26.078Z</time>
      </trkpt>
      <trkpt lat="47.475712" lon="7.852137">
        <ele>441.050330</ele>
        <time>2021-11-22T21:01:37.270Z</time>
      </trkpt>
      <trkpt lat="47.475718" lon="7.852140">
        <ele>441.085046</ele>
        <time>2021-11-22T21:01:37.626Z</time>
      </trkpt>
      <trkpt lat="47.476000" lon="7.852252">
        <ele>442.685549</ele>
        <time>2021-11-22T21:01:50.452Z</time>
      </trkpt>
      <trkpt lat="47.476190" lon="7.852326">
        <ele>443.762510</ele>
        <time>2021-11-22T21:01:58.518Z</time>
      </trkpt>
      <trkpt lat="47.476289" lon="7.852358">
        <ele>444.317976</ele>
        <time>2021-11-22T21:02:03.546Z</time>
      </trkpt>
      <trkpt lat="47.476520" lon="7.852417">
        <ele>445.388246</ele>
        <time>2021-11-22T21:02:12.631Z</time>
      </trkpt>
      <trkpt lat="47.476682" lon="7.852438">
        <ele>446.071319</ele>
        <time>2021-11-22T21:02:20.122Z</time>
      </trkpt>
      <trkpt lat="47.476792" lon="7.852449">
        <ele>446.534418</ele>
        <time>2021-11-22T21:02:24.444Z</time>
      </trkpt>
      <trkpt lat="47.476984" lon="7.852449">
        <ele>447.340897</ele>
        <time>2021-11-22T21:02:32.486Z</time>
      </trkpt>
      <trkpt lat="47.479117" lon="7.852270">
        <ele>456.133483</ele>
        <time>2021-11-22T21:03:45.374Z</time>
      </trkpt>
      <trkpt lat="47.479244" lon="7.852259">
        <ele>456.644078</ele>
        <time>2021-11-22T21:03:49.358Z</time>
      </trkpt>
      <trkpt lat="47.479485" lon="7.852237">
        <ele>457.613186</ele>
        <time>2021-11-22T21:03:59.683Z</time>
      </trkpt>
      <trkpt lat="47.479865" lon="7.852147">
        <ele>459.157755</ele>
        <time>2021-11-22T21:04:14.516Z</time>
      </trkpt>
      <trkpt lat="47.480217" lon="7.852063">
        <ele>460.558449</ele>
        <time>2021-11-22T21:04:29.013Z</time>
      </trkpt>
      <trkpt lat="47.480646" lon="7.851849">
        <ele>462.326721</ele>
        <time>2021-11-22T21:04:45.704Z</time>
      </trkpt>
      <trkpt lat="47.480750" lon="7.851790">
        <ele>462.761763</ele>
        <time>2021-11-22T21:04:50.583Z</time>
      </trkpt>
      <trkpt lat="47.480852" lon="7.851729">
        <ele>463.191471</ele>
        <time>2021-11-22T21:04:55.070Z</time>
      </trkpt>
      <trkpt lat="47.481334" lon="7.851437">
        <ele>465.225773</ele>
        <time>2021-11-22T21:05:11.419Z</time>
      </trkpt>
      <trkpt lat="47.481608" lon="7.851297">
        <ele>466.357986</ele>
        <time>2021-11-22T21:05:19.935Z</time>
      </trkpt>
      <trkpt lat="47.481766" lon="7.851223">
        <ele>466.883989</ele>
        <time>2021-11-22T21:05:26.236Z</time>
      </trkpt>
      <trkpt lat="47.482358" lon="7.850933">
        <ele>468.753363</ele>
        <time>2021-11-22T21:05:46.931Z</time>
      </trkpt>
      <trkpt lat="47.482608" lon="7.850799">
        <ele>469.550446</ele>
        <time>2021-11-22T21:05:54.163Z</time>
      </trkpt>
      <trkpt lat="47.482665" lon="7.850768">
        <ele>469.732492</ele>
        <time>2021-11-22T21:05:56.339Z</time>
      </trkpt>
      <trkpt lat="47.482738" lon="7.850728">
        <ele>469.965848</ele>
        <time>2021-11-22T21:05:57.741Z</time>
      </trkpt>
      <trkpt lat="47.482794" lon="7.850696">
        <ele>470.145803</ele>
        <time>2021-11-22T21:05:59.505Z</time>
      </trkpt>
      <trkpt lat="47.482807" lon="7.850688">
        <ele>470.188010</ele>
        <time>2021-11-22T21:06:00.779Z</time>
      </trkpt>
      <trkpt lat="47.482915" lon="7.850629">
        <ele>470.533123</ele>
        <time>2021-11-22T21:06:02.254Z</time>
      </trkpt>
      <trkpt lat="47.483011" lon="7.850573">
        <ele>470.842459</ele>
        <time>2021-11-22T21:06:06.295Z</time>
      </trkpt>
      <trkpt lat="47.483128" lon="7.850517">
        <ele>471.211084</ele>
        <time>2021-11-22T21:06:10.362Z</time>
      </trkpt>
      <trkpt lat="47.484041" lon="7.850377">
        <ele>473.946274</ele>
        <time>2021-11-22T21:06:34.773Z</time>
      </trkpt>
      <trkpt lat="47.484352" lon="7.850459">
        <ele>474.885815</ele>
        <time>2021-11-22T21:06:43.651Z</time>
      </trkpt>
      <trkpt lat="47.484518" lon="7.850556">
        <ele>475.416631</ele>
        <time>2021-11-22T21:06:50.651Z</time>
      </trkpt>
      <trkpt lat="47.484548" lon="7.850572">
        <ele>475.511475</ele>
        <time>2021-11-22T21:06:51.979Z</time>
      </trkpt>
      <trkpt lat="47.484631" lon="7.850586">
        <ele>475.759931</ele>
        <time>2021-11-22T21:06:54.094Z</time>
      </trkpt>
      <trkpt lat="47.484736" lon="7.850560">
        <ele>476.076563</ele>
        <time>2021-11-22T21:06:55.476Z</time>
      </trkpt>
      <trkpt lat="47.484922" lon="7.850473">
        <ele>476.656740</ele>
        <time>2021-11-22T21:07:01.289Z</time>
      </trkpt>
      <trkpt lat="47.485140" lon="7.850236">
        <ele>477.343526</ele>
        <time>2021-11-22T21:07:06.492Z</time>
      </trkpt>
      <trkpt lat="47.485302" lon="7.850164">
        <ele>477.595972</ele>
        <time>2021-11-22T21:07:09.955Z</time>
      </trkpt>
      <trkpt lat="47.485423" lon="7.850124">
        <ele>477.781009</ele>
        <time>2021-11-22T21:07:11.664Z</time>
      </trkpt>
      <trkpt lat="47.485547" lon="7.850079">
        <ele>477.971556</ele>
        <time>2021-11-22T21:07:15.373Z</time>
      </trkpt>
      <trkpt lat="47.485834" lon="7.849993">
        <ele>478.408581</ele>
        <time>2021-11-22T21:07:20.305Z</time>
      </trkpt>
      <trkpt lat="47.485932" lon="7.849984">
        <ele>478.555122</ele>
        <time>2021-11-22T21:07:23.230Z</time>
      </trkpt>
      <trkpt lat="47.485987" lon="7.849975">
        <ele>478.637707</ele>
        <time>2021-11-22T21:07:24.428Z</time>
      </trkpt>
      <trkpt lat="47.486083" lon="7.849946">
        <ele>478.783936</ele>
        <time>2021-11-22T21:07:25.488Z</time>
      </trkpt>
      <trkpt lat="47.486240" lon="7.849728">
        <ele>479.105250</ele>
        <time>2021-11-22T21:07:29.741Z</time>
      </trkpt>
      <trkpt lat="47.486279" lon="7.849670">
        <ele>479.187770</ele>
        <time>2021-11-22T21:07:30.821Z</time>
      </trkpt>
      <trkpt lat="47.486303" lon="7.849650">
        <ele>479.228878</ele>
        <time>2021-11-22T21:07:31.447Z</time>
      </trkpt>
      <trkpt lat="47.486469" lon="7.849589">
        <ele>479.484148</ele>
        <time>2021-11-22T21:07:34.043Z</time>
      </trkpt>
      <trkpt lat="47.486773" lon="7.849704">
        <ele>480.057527</ele>
        <time>2021-11-22T21:07:40.717Z</time>
      </trkpt>
      <trkpt lat="47.486894" lon="7.849739">
        <ele>480.689639</ele>
        <time>2021-11-22T21:07:43.961Z</time>
      </trkpt>
      <trkpt lat="47.487073" lon="7.849767">
        <ele>481.612491</ele>
        <time>2021-11-22T21:07:48.417Z</time>
      </trkpt>
      <trkpt lat="47.487219" lon="7.849782">
        <ele>482.362840</ele>
        <time>2021-11-22T21:07:52.026Z</time>
      </trkpt>
      <trkpt lat="47.487361" lon="7.849792">
        <ele>483.091703</ele>
        <time>2021-11-22T21:07:56.352Z</time>
      </trkpt>
      <trkpt lat="47.488402" lon="7.849885">
        <ele>488.438664</ele>
        <time>2021-11-22T21:08:39.655Z</time>
      </trkpt>
      <trkpt lat="47.488639" lon="7.849855">
        <ele>489.926871</ele>
        <time>2021-11-22T21:08:48.139Z</time>
      </trkpt>
      <trkpt lat="47.488939" lon="7.849720">
        <ele>492.353766</ele>
        <time>2021-11-22T21:09:02.059Z</time>
      </trkpt>
      <trkpt lat="47.488993" lon="7.849683">
        <ele>492.814335</ele>
        <time>2021-11-22T21:09:05.239Z</time>
      </trkpt>
      <trkpt lat="47.488993" lon="7.849683">
        <ele>492.814335</ele>
        <time>2021-11-22T21:09:05.471Z</time>
      </trkpt>
      <trkpt lat="47.489046" lon="7.849642">
        <ele>493.277205</ele>
        <time>2021-11-22T21:09:08.561Z</time>
      </trkpt>
      <trkpt lat="47.489366" lon="7.849261">
        <ele>496.455984</ele>
        <time>2021-11-22T21:09:25.941Z</time>
      </trkpt>
      <trkpt lat="47.489636" lon="7.849127">
        <ele>498.660093</ele>
        <time>2021-11-22T21:09:38.266Z</time>
      </trkpt>
      <trkpt lat="47.489714" lon="7.849112">
        <ele>499.268868</ele>
        <time>2021-11-22T21:09:43.325Z</time>
      </trkpt>
      <trkpt lat="47.489830" lon="7.849115">
        <ele>500.166814</ele>
        <time>2021-11-22T21:09:47.814Z</time>
      </trkpt>
      <trkpt lat="47.490088" lon="7.849193">
        <ele>502.204907</ele>
        <time>2021-11-22T21:10:02.345Z</time>
      </trkpt>
      <trkpt lat="47.490655" lon="7.849589">
        <ele>508.374983</ele>
        <time>2021-11-22T21:10:31.383Z</time>
      </trkpt>
      <trkpt lat="47.490721" lon="7.849614">
        <ele>509.075712</ele>
        <time>2021-11-22T21:10:35.711Z</time>
      </trkpt>
      <trkpt lat="47.490767" lon="7.849632">
        <ele>509.565106</ele>
        <time>2021-11-22T21:10:37.892Z</time>
      </trkpt>
      <trkpt lat="47.491187" lon="7.849815">
        <ele>514.068371</ele>
        <time>2021-11-22T21:11:03.785Z</time>
      </trkpt>
      <trkpt lat="47.492141" lon="7.850226">
        <ele>524.647739</ele>
        <time>2021-11-22T21:12:01.706Z</time>
      </trkpt>
      <trkpt lat="47.492293" lon="7.850293">
        <ele>526.493444</ele>
        <time>2021-11-22T21:12:14.388Z</time>
      </trkpt>
      <trkpt lat="47.492414" lon="7.850375">
        <ele>528.042201</ele>
        <time>2021-11-22T21:12:23.448Z</time>
      </trkpt>
      <trkpt lat="47.492541" lon="7.850563">
        <ele>530.132613</ele>
        <time>2021-11-22T21:12:34.947Z</time>
      </trkpt>
      <trkpt lat="47.492601" lon="7.850751">
        <ele>531.767533</ele>
        <time>2021-11-22T21:12:44.995Z</time>
      </trkpt>
      <trkpt lat="47.492659" lon="7.851591">
        <ele>538.407144</ele>
        <time>2021-11-22T21:13:19.082Z</time>
      </trkpt>
      <trkpt lat="47.492688" lon="7.851670">
        <ele>539.114105</ele>
        <time>2021-11-22T21:13:24.248Z</time>
      </trkpt>
      <trkpt lat="47.492804" lon="7.851886">
        <ele>541.283720</ele>
        <time>2021-11-22T21:13:33.975Z</time>
      </trkpt>
      <trkpt lat="47.492920" lon="7.852087">
        <ele>543.164462</ele>
        <time>2021-11-22T21:13:45.671Z</time>
      </trkpt>
      <trkpt lat="47.493033" lon="7.852285">
        <ele>544.743449</ele>
        <time>2021-11-22T21:13:54.250Z</time>
      </trkpt>
      <trkpt lat="47.493043" lon="7.852307">
        <ele>544.904985</ele>
        <time>2021-11-22T21:13:55.645Z</time>
      </trkpt>
      <trkpt lat="47.493296" lon="7.852938">
        <ele>549.375099</ele>
        <time>2021-11-22T21:14:17.437Z</time>
      </trkpt>
      <trkpt lat="47.493734" lon="7.854034">
        <ele>557.132688</ele>
        <time>2021-11-22T21:15:00.856Z</time>
      </trkpt>
      <trkpt lat="47.494057" lon="7.854507">
        <ele>560.744887</ele>
        <time>2021-11-22T21:15:25.320Z</time>
      </trkpt>
      <trkpt lat="47.494198" lon="7.854677">
        <ele>562.070232</ele>
        <time>2021-11-22T21:15:32.694Z</time>
      </trkpt>
      <trkpt lat="47.494366" lon="7.854877">
        <ele>563.641456</ele>
        <time>2021-11-22T21:15:44.996Z</time>
      </trkpt>
      <trkpt lat="47.494791" lon="7.855375">
        <ele>567.591845</ele>
        <time>2021-11-22T21:16:06.418Z</time>
      </trkpt>
      <trkpt lat="47.494903" lon="7.855508">
        <ele>568.638295</ele>
        <time>2021-11-22T21:16:15.208Z</time>
      </trkpt>
      <trkpt lat="47.495162" lon="7.855728">
        <ele>570.814533</ele>
        <time>2021-11-22T21:16:24.904Z</time>
      </trkpt>
      <trkpt lat="47.495219" lon="7.855764">
        <ele>571.266164</ele>
        <time>2021-11-22T21:16:29.875Z</time>
      </trkpt>
      <trkpt lat="47.495339" lon="7.855822">
        <ele>571.799625</ele>
        <time>2021-11-22T21:16:33.359Z</time>
      </trkpt>
      <trkpt lat="47.495626" lon="7.855911">
        <ele>571.745372</ele>
        <time>2021-11-22T21:16:44.439Z</time>
      </trkpt>
      <trkpt lat="47.495682" lon="7.855928">
        <ele>571.734795</ele>
        <time>2021-11-22T21:16:45.310Z</time>
      </trkpt>
      <trkpt lat="47.495761" lon="7.855963">
        <ele>571.719537</ele>
        <time>2021-11-22T21:16:46.253Z</time>
      </trkpt>
      <trkpt lat="47.495985" lon="7.856090">
        <ele>571.675156</ele>
        <time>2021-11-22T21:16:53.658Z</time>
      </trkpt>
      <trkpt lat="47.496570" lon="7.856657">
        <ele>571.545777</ele>
        <time>2021-11-22T21:17:01.783Z</time>
      </trkpt>
      <trkpt lat="47.496867" lon="7.857284">
        <ele>570.329864</ele>
        <time>2021-11-22T21:17:06.549Z</time>
      </trkpt>
      <trkpt lat="47.497045" lon="7.858131">
        <ele>565.506095</ele>
        <time>2021-11-22T21:17:11.934Z</time>
      </trkpt>
      <trkpt lat="47.497149" lon="7.858438">
        <ele>563.638489</ele>
        <time>2021-11-22T21:17:13.927Z</time>
      </trkpt>
      <trkpt lat="47.497833" lon="7.859414">
        <ele>555.982829</ele>
        <time>2021-11-22T21:17:22.159Z</time>
      </trkpt>
      <trkpt lat="47.497901" lon="7.859533">
        <ele>555.128218</ele>
        <time>2021-11-22T21:17:23.063Z</time>
      </trkpt>
      <trkpt lat="47.498008" lon="7.859754">
        <ele>553.637367</ele>
        <time>2021-11-22T21:17:24.712Z</time>
      </trkpt>
      <trkpt lat="47.498026" lon="7.859791">
        <ele>553.387361</ele>
        <time>2021-11-22T21:17:24.968Z</time>
      </trkpt>
      <trkpt lat="47.498262" lon="7.860571">
        <ele>548.701084</ele>
        <time>2021-11-22T21:17:30.192Z</time>
      </trkpt>
      <trkpt lat="47.498298" lon="7.860778">
        <ele>547.529041</ele>
        <time>2021-11-22T21:17:31.467Z</time>
      </trkpt>
      <trkpt lat="47.498322" lon="7.861024">
        <ele>546.166162</ele>
        <time>2021-11-22T21:17:33.140Z</time>
      </trkpt>
      <trkpt lat="47.498287" lon="7.861611">
        <ele>542.934965</ele>
        <time>2021-11-22T21:17:36.568Z</time>
      </trkpt>
      <trkpt lat="47.497995" lon="7.862394">
        <ele>535.837660</ele>
        <time>2021-11-22T21:17:41.838Z</time>
      </trkpt>
      <trkpt lat="47.497959" lon="7.862857">
        <ele>531.999669</ele>
        <time>2021-11-22T21:17:44.521Z</time>
      </trkpt>
      <trkpt lat="47.497989" lon="7.863021">
        <ele>530.600494</ele>
        <time>2021-11-22T21:17:45.469Z</time>
      </trkpt>
      <trkpt lat="47.498044" lon="7.863155">
        <ele>529.309322</ele>
        <time>2021-11-22T21:17:46.389Z</time>
      </trkpt>
      <trkpt lat="47.498094" lon="7.863239">
        <ele>528.387404</ele>
        <time>2021-11-22T21:17:47.070Z</time>
      </trkpt>
      <trkpt lat="47.498143" lon="7.863313">
        <ele>527.534131</ele>
        <time>2021-11-22T21:17:47.669Z</time>
      </trkpt>
      <trkpt lat="47.498210" lon="7.863375">
        <ele>526.571004</ele>
        <time>2021-11-22T21:17:48.331Z</time>
      </trkpt>
      <trkpt lat="47.498435" lon="7.863451">
        <ele>523.757988</ele>
        <time>2021-11-22T21:17:50.345Z</time>
      </trkpt>
      <trkpt lat="47.498580" lon="7.863425">
        <ele>521.977671</ele>
        <time>2021-11-22T21:17:51.541Z</time>
      </trkpt>
      <trkpt lat="47.498820" lon="7.863196">
        <ele>517.971888</ele>
        <time>2021-11-22T21:17:53.956Z</time>
      </trkpt>
      <trkpt lat="47.499113" lon="7.862818">
        <ele>511.977939</ele>
        <time>2021-11-22T21:17:57.146Z</time>
      </trkpt>
      <trkpt lat="47.499273" lon="7.862595">
        <ele>508.588768</ele>
        <time>2021-11-22T21:17:58.971Z</time>
      </trkpt>
      <trkpt lat="47.499376" lon="7.862501">
        <ele>506.722693</ele>
        <time>2021-11-22T21:17:59.969Z</time>
      </trkpt>
      <trkpt lat="47.499406" lon="7.862482">
        <ele>506.219474</ele>
        <time>2021-11-22T21:18:00.254Z</time>
      </trkpt>
      <trkpt lat="47.499629" lon="7.862416">
        <ele>502.712393</ele>
        <time>2021-11-22T21:18:02.170Z</time>
      </trkpt>
      <trkpt lat="47.499952" lon="7.862524">
        <ele>497.605719</ele>
        <time>2021-11-22T21:18:04.938Z</time>
      </trkpt>
      <trkpt lat="47.500468" lon="7.862843">
        <ele>490.070831</ele>
        <time>2021-11-22T21:18:09.596Z</time>
      </trkpt>
      <trkpt lat="47.501035" lon="7.863348">
        <ele>482.822689</ele>
        <time>2021-11-22T21:18:15.274Z</time>
      </trkpt>
      <trkpt lat="47.501300" lon="7.863507">
        <ele>479.690659</ele>
        <time>2021-11-22T21:18:17.758Z</time>
      </trkpt>
      <trkpt lat="47.501511" lon="7.863635">
        <ele>477.192945</ele>
        <time>2021-11-22T21:18:19.734Z</time>
      </trkpt>
      <trkpt lat="47.501653" lon="7.863755">
        <ele>475.401944</ele>
        <time>2021-11-22T21:18:21.117Z</time>
      </trkpt>
      <trkpt lat="47.501711" lon="7.863821">
        <ele>474.600623</ele>
        <time>2021-11-22T21:18:21.750Z</time>
      </trkpt>
      <trkpt lat="47.501772" lon="7.863893">
        <ele>473.746056</ele>
        <time>2021-11-22T21:18:22.442Z</time>
      </trkpt>
      <trkpt lat="47.501887" lon="7.864052">
        <ele>472.159248</ele>
        <time>2021-11-22T21:18:23.783Z</time>
      </trkpt>
      <trkpt lat="47.502040" lon="7.864236">
        <ele>470.290723</ele>
        <time>2021-11-22T21:18:25.469Z</time>
      </trkpt>
      <trkpt lat="47.502167" lon="7.864327">
        <ele>468.953321</ele>
        <time>2021-11-22T21:18:26.701Z</time>
      </trkpt>
      <trkpt lat="47.502294" lon="7.864417">
        <ele>467.618696</ele>
        <time>2021-11-22T21:18:27.883Z</time>
      </trkpt>
      <trkpt lat="47.502827" lon="7.864774">
        <ele>462.073474</ele>
        <time>2021-11-22T21:18:32.951Z</time>
      </trkpt>
      <trkpt lat="47.502843" lon="7.864785">
        <ele>461.906258</ele>
        <time>2021-11-22T21:18:33.099Z</time>
      </trkpt>
      <trkpt lat="47.502975" lon="7.864876">
        <ele>460.526047</ele>
        <time>2021-11-22T21:18:34.346Z</time>
      </trkpt>
      <trkpt lat="47.503068" lon="7.864937">
        <ele>459.561873</ele>
        <time>2021-11-22T21:18:35.315Z</time>
      </trkpt>
      <trkpt lat="47.503106" lon="7.864958">
        <ele>459.177404</ele>
        <time>2021-11-22T21:18:35.669Z</time>
      </trkpt>
      <trkpt lat="47.503152" lon="7.864980">
        <ele>458.719195</ele>
        <time>2021-11-22T21:18:36.102Z</time>
      </trkpt>
      <trkpt lat="47.503195" lon="7.864995">
        <ele>458.300450</ele>
        <time>2021-11-22T21:18:36.470Z</time>
      </trkpt>
      <trkpt lat="47.503247" lon="7.865009">
        <ele>457.799477</ele>
        <time>2021-11-22T21:18:36.933Z</time>
      </trkpt>
      <trkpt lat="47.503302" lon="7.865016">
        <ele>457.276230</ele>
        <time>2021-11-22T21:18:37.398Z</time>
      </trkpt>
      <trkpt lat="47.503852" lon="7.864881">
        <ele>453.300114</ele>
        <time>2021-11-22T21:18:42.411Z</time>
      </trkpt>
      <trkpt lat="47.504143" lon="7.864781">
        <ele>451.395037</ele>
        <time>2021-11-22T21:18:45.099Z</time>
      </trkpt>
      <trkpt lat="47.504308" lon="7.864735">
        <ele>450.324322</ele>
        <time>2021-11-22T21:18:46.589Z</time>
      </trkpt>
      <trkpt lat="47.504643" lon="7.864558">
        <ele>448.056002</ele>
        <time>2021-11-22T21:18:49.874Z</time>
      </trkpt>
      <trkpt lat="47.504920" lon="7.864294">
        <ele>445.955106</ele>
        <time>2021-11-22T21:18:52.973Z</time>
      </trkpt>
      <trkpt lat="47.504952" lon="7.864282">
        <ele>445.744594</ele>
        <time>2021-11-22T21:18:53.261Z</time>
      </trkpt>
      <trkpt lat="47.504995" lon="7.864288">
        <ele>445.469164</ele>
        <time>2021-11-22T21:18:53.672Z</time>
      </trkpt>
      <trkpt lat="47.505256" lon="7.864486">
        <ele>443.926495</ele>
        <time>2021-11-22T21:18:56.534Z</time>
      </trkpt>
      <trkpt lat="47.505405" lon="7.864527">
        <ele>443.303737</ele>
        <time>2021-11-22T21:18:57.920Z</time>
      </trkpt>
      <trkpt lat="47.505441" lon="7.864505">
        <ele>443.143697</ele>
        <time>2021-11-22T21:18:58.293Z</time>
      </trkpt>
      <trkpt lat="47.505465" lon="7.864478">
        <ele>443.019829</ele>
        <time>2021-11-22T21:18:58.568Z</time>
      </trkpt>
      <trkpt lat="47.505507" lon="7.864261">
        <ele>442.393234</ele>
        <time>2021-11-22T21:19:00.095Z</time>
      </trkpt>
      <trkpt lat="47.505513" lon="7.864163">
        <ele>442.120087</ele>
        <time>2021-11-22T21:19:00.718Z</time>
      </trkpt>
      <trkpt lat="47.505528" lon="7.864048">
        <ele>441.794969</ele>
        <time>2021-11-22T21:19:01.473Z</time>
      </trkpt>
      <trkpt lat="47.505633" lon="7.863539">
        <ele>440.317657</ele>
        <time>2021-11-22T21:19:05.016Z</time>
      </trkpt>
      <trkpt lat="47.505675" lon="7.863444">
        <ele>440.002497</ele>
        <time>2021-11-22T21:19:05.757Z</time>
      </trkpt>
      <trkpt lat="47.505692" lon="7.863406">
        <ele>439.875981</ele>
        <time>2021-11-22T21:19:06.106Z</time>
      </trkpt>
      <trkpt lat="47.505748" lon="7.863314">
        <ele>439.532222</ele>
        <time>2021-11-22T21:19:07.050Z</time>
      </trkpt>
      <trkpt lat="47.505782" lon="7.863270">
        <ele>439.346650</ele>
        <time>2021-11-22T21:19:07.458Z</time>
      </trkpt>
      <trkpt lat="47.506122" lon="7.863012">
        <ele>437.776667</ele>
        <time>2021-11-22T21:19:11.293Z</time>
      </trkpt>
      <trkpt lat="47.506215" lon="7.862947">
        <ele>437.354060</ele>
        <time>2021-11-22T21:19:12.264Z</time>
      </trkpt>
      <trkpt lat="47.506248" lon="7.862922">
        <ele>437.201732</ele>
        <time>2021-11-22T21:19:12.633Z</time>
      </trkpt>
      <trkpt lat="47.506544" lon="7.862713">
        <ele>436.105076</ele>
        <time>2021-11-22T21:19:15.842Z</time>
      </trkpt>
      <trkpt lat="47.506679" lon="7.862634">
        <ele>435.625973</ele>
        <time>2021-11-22T21:19:17.318Z</time>
      </trkpt>
      <trkpt lat="47.507294" lon="7.862232">
        <ele>433.407166</ele>
        <time>2021-11-22T21:19:24.031Z</time>
      </trkpt>
      <trkpt lat="47.507355" lon="7.862189">
        <ele>433.184182</ele>
        <time>2021-11-22T21:19:24.793Z</time>
      </trkpt>
      <trkpt lat="47.507509" lon="7.862078">
        <ele>432.618878</ele>
        <time>2021-11-22T21:19:26.480Z</time>
      </trkpt>
      <trkpt lat="47.507702" lon="7.861899">
        <ele>431.867219</ele>
        <time>2021-11-22T21:19:28.883Z</time>
      </trkpt>
      <trkpt lat="47.507768" lon="7.861796">
        <ele>431.550711</ele>
        <time>2021-11-22T21:19:29.864Z</time>
      </trkpt>
      <trkpt lat="47.507840" lon="7.861638">
        <ele>431.144177</ele>
        <time>2021-11-22T21:19:31.159Z</time>
      </trkpt>
      <trkpt lat="47.507928" lon="7.861309">
        <ele>430.571586</ele>
        <time>2021-11-22T21:19:33.704Z</time>
      </trkpt>
      <trkpt lat="47.508015" lon="7.860357">
        <ele>429.017071</ele>
        <time>2021-11-22T21:19:40.523Z</time>
      </trkpt>
      <trkpt lat="47.508332" lon="7.859103">
        <ele>426.880173</ele>
        <time>2021-11-22T21:19:50.159Z</time>
      </trkpt>
      <trkpt lat="47.508349" lon="7.859039">
        <ele>426.867171</ele>
        <time>2021-11-22T21:19:51.009Z</time>
      </trkpt>
      <trkpt lat="47.508381" lon="7.858911">
        <ele>426.841367</ele>
        <time>2021-11-22T21:19:51.929Z</time>
      </trkpt>
      <trkpt lat="47.508421" lon="7.858745">
        <ele>426.808047</ele>
        <time>2021-11-22T21:19:53.466Z</time>
      </trkpt>
      <trkpt lat="47.508474" lon="7.858558">
        <ele>426.769707</ele>
        <time>2021-11-22T21:19:55.142Z</time>
      </trkpt>
      <trkpt lat="47.508546" lon="7.858348">
        <ele>426.725183</ele>
        <time>2021-11-22T21:19:56.871Z</time>
      </trkpt>
      <trkpt lat="47.508916" lon="7.857621">
        <ele>426.553092</ele>
        <time>2021-11-22T21:20:05.346Z</time>
      </trkpt>
      <trkpt lat="47.509118" lon="7.857296">
        <ele>426.469595</ele>
        <time>2021-11-22T21:20:10.669Z</time>
      </trkpt>
      <trkpt lat="47.509242" lon="7.857142">
        <ele>426.424294</ele>
        <time>2021-11-22T21:20:13.440Z</time>
      </trkpt>
      <trkpt lat="47.509612" lon="7.856783">
        <ele>426.904434</ele>
        <time>2021-11-22T21:20:22.626Z</time>
      </trkpt>
      <trkpt lat="47.509866" lon="7.856623">
        <ele>427.408926</ele>
        <time>2021-11-22T21:20:29.094Z</time>
      </trkpt>
      <trkpt lat="47.510645" lon="7.856175">
        <ele>428.936293</ele>
        <time>2021-11-22T21:20:49.625Z</time>
      </trkpt>
      <trkpt lat="47.512091" lon="7.855323">
        <ele>430.714596</ele>
        <time>2021-11-22T21:21:21.142Z</time>
      </trkpt>
      <trkpt lat="47.512545" lon="7.855000">
        <ele>431.170658</ele>
        <time>2021-11-22T21:21:29.263Z</time>
      </trkpt>
      <trkpt lat="47.512998" lon="7.854574">
        <ele>430.857259</ele>
        <time>2021-11-22T21:21:36.997Z</time>
      </trkpt>
      <trkpt lat="47.513025" lon="7.854549">
        <ele>430.822088</ele>
        <time>2021-11-22T21:21:37.292Z</time>
      </trkpt>
      <trkpt lat="47.513112" lon="7.854470">
        <ele>430.709372</ele>
        <time>2021-11-22T21:21:38.796Z</time>
      </trkpt>
      <trkpt lat="47.513384" lon="7.854250">
        <ele>430.367066</ele>
        <time>2021-11-22T21:21:42.720Z</time>
      </trkpt>
      <trkpt lat="47.513406" lon="7.854237">
        <ele>430.340906</ele>
        <time>2021-11-22T21:21:42.990Z</time>
      </trkpt>
      <trkpt lat="47.513486" lon="7.854188">
        <ele>430.245290</ele>
        <time>2021-11-22T21:21:44.855Z</time>
      </trkpt>
      <trkpt lat="47.514548" lon="7.853897">
        <ele>428.265967</ele>
        <time>2021-11-22T21:21:56.906Z</time>
      </trkpt>
      <trkpt lat="47.515319" lon="7.853580">
        <ele>424.683403</ele>
        <time>2021-11-22T21:22:04.834Z</time>
      </trkpt>
      <trkpt lat="47.516157" lon="7.853414">
        <ele>420.666030</ele>
        <time>2021-11-22T21:22:12.601Z</time>
      </trkpt>
      <trkpt lat="47.517407" lon="7.852910">
        <ele>411.117173</ele>
        <time>2021-11-22T21:22:24.085Z</time>
      </trkpt>
      <trkpt lat="47.518274" lon="7.852715">
        <ele>404.917098</ele>
        <time>2021-11-22T21:22:31.919Z</time>
      </trkpt>
      <trkpt lat="47.518338" lon="7.852687">
        <ele>404.463962</ele>
        <time>2021-11-22T21:22:32.515Z</time>
      </trkpt>
      <trkpt lat="47.518404" lon="7.852651">
        <ele>403.986379</ele>
        <time>2021-11-22T21:22:33.110Z</time>
      </trkpt>
      <trkpt lat="47.519059" lon="7.852195">
        <ele>399.071845</ele>
        <time>2021-11-22T21:22:39.664Z</time>
      </trkpt>
      <trkpt lat="47.519998" lon="7.851794">
        <ele>393.070224</ele>
        <time>2021-11-22T21:22:48.651Z</time>
      </trkpt>
      <trkpt lat="47.520894" lon="7.851134">
        <ele>387.561029</ele>
        <time>2021-11-22T21:22:57.980Z</time>
      </trkpt>
      <trkpt lat="47.521382" lon="7.850770">
        <ele>384.826174</ele>
        <time>2021-11-22T21:23:03.070Z</time>
      </trkpt>
      <trkpt lat="47.521526" lon="7.850659">
        <ele>384.115748</ele>
        <time>2021-11-22T21:23:04.641Z</time>
      </trkpt>
      <trkpt lat="47.521788" lon="7.850457">
        <ele>382.823111</ele>
        <time>2021-11-22T21:23:07.446Z</time>
      </trkpt>
      <trkpt lat="47.521905" lon="7.850364">
        <ele>382.242007</ele>
        <time>2021-11-22T21:23:08.728Z</time>
      </trkpt>
      <trkpt lat="47.522016" lon="7.850249">
        <ele>381.649176</ele>
        <time>2021-11-22T21:23:09.992Z</time>
      </trkpt>
      <trkpt lat="47.522383" lon="7.849771">
        <ele>379.510314</ele>
        <time>2021-11-22T21:23:14.749Z</time>
      </trkpt>
      <trkpt lat="47.523462" lon="7.848071">
        <ele>374.197444</ele>
        <time>2021-11-22T21:23:30.610Z</time>
      </trkpt>
      <trkpt lat="47.523494" lon="7.848012">
        <ele>374.039336</ele>
        <time>2021-11-22T21:23:31.133Z</time>
      </trkpt>
      <trkpt lat="47.523555" lon="7.847886">
        <ele>373.715417</ele>
        <time>2021-11-22T21:23:32.200Z</time>
      </trkpt>
      <trkpt lat="47.523686" lon="7.847545">
        <ele>372.895736</ele>
        <time>2021-11-22T21:23:35.036Z</time>
      </trkpt>
      <trkpt lat="47.523802" lon="7.847022">
        <ele>372.073443</ele>
        <time>2021-11-22T21:23:38.986Z</time>
      </trkpt>
      <trkpt lat="47.523835" lon="7.846794">
        <ele>371.813273</ele>
        <time>2021-11-22T21:23:40.656Z</time>
      </trkpt>
      <trkpt lat="47.523853" lon="7.846641">
        <ele>371.639990</ele>
        <time>2021-11-22T21:23:41.800Z</time>
      </trkpt>
      <trkpt lat="47.524021" lon="7.844415">
        <ele>369.382113</ele>
        <time>2021-11-22T21:23:59.288Z</time>
      </trkpt>
      <trkpt lat="47.524038" lon="7.844197">
        <ele>369.312831</ele>
        <time>2021-11-22T21:24:01.246Z</time>
      </trkpt>
      <trkpt lat="47.524060" lon="7.843958">
        <ele>369.236679</ele>
        <time>2021-11-22T21:24:03.918Z</time>
      </trkpt>
      <trkpt lat="47.524194" lon="7.842950">
        <ele>368.912335</ele>
        <time>2021-11-22T21:24:13.809Z</time>
      </trkpt>
      <trkpt lat="47.524379" lon="7.841758">
        <ele>368.294355</ele>
        <time>2021-11-22T21:24:25.157Z</time>
      </trkpt>
      <trkpt lat="47.524396" lon="7.841663">
        <ele>368.198056</ele>
        <time>2021-11-22T21:24:26.023Z</time>
      </trkpt>
      <trkpt lat="47.524496" lon="7.841003">
        <ele>367.535277</ele>
        <time>2021-11-22T21:24:31.712Z</time>
      </trkpt>
      <trkpt lat="47.524543" lon="7.840592">
        <ele>367.126826</ele>
        <time>2021-11-22T21:24:35.089Z</time>
      </trkpt>
      <trkpt lat="47.524580" lon="7.840241">
        <ele>366.778735</ele>
        <time>2021-11-22T21:24:37.803Z</time>
      </trkpt>
      <trkpt lat="47.524591" lon="7.839934">
        <ele>366.477499</ele>
        <time>2021-11-22T21:24:40.125Z</time>
      </trkpt>
      <trkpt lat="47.524599" lon="7.839536">
        <ele>366.087347</ele>
        <time>2021-11-22T21:24:42.949Z</time>
      </trkpt>
      <trkpt lat="47.524607" lon="7.839320">
        <ele>365.699807</ele>
        <time>2021-11-22T21:24:44.375Z</time>
      </trkpt>
      <trkpt lat="47.524625" lon="7.839029">
        <ele>365.080841</ele>
        <time>2021-11-22T21:24:46.419Z</time>
      </trkpt>
      <trkpt lat="47.524643" lon="7.838749">
        <ele>364.485074</ele>
        <time>2021-11-22T21:24:48.280Z</time>
      </trkpt>
      <trkpt lat="47.524669" lon="7.838491">
        <ele>363.932537</ele>
        <time>2021-11-22T21:24:50.124Z</time>
      </trkpt>
      <trkpt lat="47.524759" lon="7.837961">
        <ele>362.774960</ele>
        <time>2021-11-22T21:24:53.870Z</time>
      </trkpt>
      <trkpt lat="47.524968" lon="7.837173">
        <ele>360.981724</ele>
        <time>2021-11-22T21:24:59.542Z</time>
      </trkpt>
      <trkpt lat="47.525838" lon="7.833881">
        <ele>354.358720</ele>
        <time>2021-11-22T21:25:24.278Z</time>
      </trkpt>
      <trkpt lat="47.525904" lon="7.833621">
        <ele>353.933641</ele>
        <time>2021-11-22T21:25:26.339Z</time>
      </trkpt>
      <trkpt lat="47.525964" lon="7.833378">
        <ele>353.537683</ele>
        <time>2021-11-22T21:25:28.212Z</time>
      </trkpt>
      <trkpt lat="47.526147" lon="7.832235">
        <ele>351.739996</ele>
        <time>2021-11-22T21:25:36.794Z</time>
      </trkpt>
      <trkpt lat="47.526239" lon="7.831314">
        <ele>350.599971</ele>
        <time>2021-11-22T21:25:43.725Z</time>
      </trkpt>
      <trkpt lat="47.526298" lon="7.830666">
        <ele>349.927033</ele>
        <time>2021-11-22T21:25:48.856Z</time>
      </trkpt>
      <trkpt lat="47.526355" lon="7.830057">
        <ele>349.294277</ele>
        <time>2021-11-22T21:25:53.735Z</time>
      </trkpt>
      <trkpt lat="47.526430" lon="7.829316">
        <ele>348.523145</ele>
        <time>2021-11-22T21:25:59.734Z</time>
      </trkpt>
      <trkpt lat="47.526641" lon="7.828028">
        <ele>347.147702</ele>
        <time>2021-11-22T21:26:10.033Z</time>
      </trkpt>
      <trkpt lat="47.526684" lon="7.827311">
        <ele>346.400296</ele>
        <time>2021-11-22T21:26:15.670Z</time>
      </trkpt>
      <trkpt lat="47.526680" lon="7.826905">
        <ele>345.978694</ele>
        <time>2021-11-22T21:26:18.791Z</time>
      </trkpt>
      <trkpt lat="47.526676" lon="7.826583">
        <ele>345.632972</ele>
        <time>2021-11-22T21:26:21.225Z</time>
      </trkpt>
      <trkpt lat="47.526690" lon="7.825476">
        <ele>344.092603</ele>
        <time>2021-11-22T21:26:29.548Z</time>
      </trkpt>
      <trkpt lat="47.526987" lon="7.822298">
        <ele>339.564514</ele>
        <time>2021-11-22T21:26:52.816Z</time>
      </trkpt>
      <trkpt lat="47.527033" lon="7.821923">
        <ele>339.019642</ele>
        <time>2021-11-22T21:26:55.654Z</time>
      </trkpt>
      <trkpt lat="47.527110" lon="7.821342">
        <ele>338.173201</ele>
        <time>2021-11-22T21:27:00.095Z</time>
      </trkpt>
      <trkpt lat="47.527128" lon="7.821204">
        <ele>338.004778</ele>
        <time>2021-11-22T21:27:01.103Z</time>
      </trkpt>
      <trkpt lat="47.527223" lon="7.820442">
        <ele>337.085038</ele>
        <time>2021-11-22T21:27:07.140Z</time>
      </trkpt>
      <trkpt lat="47.527258" lon="7.820150">
        <ele>336.733032</ele>
        <time>2021-11-22T21:27:09.289Z</time>
      </trkpt>
      <trkpt lat="47.527283" lon="7.819942">
        <ele>336.482267</ele>
        <time>2021-11-22T21:27:11.037Z</time>
      </trkpt>
      <trkpt lat="47.527327" lon="7.819619">
        <ele>336.091160</ele>
        <time>2021-11-22T21:27:13.407Z</time>
      </trkpt>
      <trkpt lat="47.527349" lon="7.819451">
        <ele>335.888038</ele>
        <time>2021-11-22T21:27:14.917Z</time>
      </trkpt>
      <trkpt lat="47.527408" lon="7.818945">
        <ele>335.278557</ele>
        <time>2021-11-22T21:27:18.844Z</time>
      </trkpt>
      <trkpt lat="47.527455" lon="7.818544">
        <ele>334.751986</ele>
        <time>2021-11-22T21:27:21.869Z</time>
      </trkpt>
      <trkpt lat="47.527466" lon="7.818406">
        <ele>334.552338</ele>
        <time>2021-11-22T21:27:23.037Z</time>
      </trkpt>
      <trkpt lat="47.527477" lon="7.818068">
        <ele>334.066153</ele>
        <time>2021-11-22T21:27:25.461Z</time>
      </trkpt>
      <trkpt lat="47.527477" lon="7.817911">
        <ele>333.840584</ele>
        <time>2021-11-22T21:27:26.684Z</time>
      </trkpt>
      <trkpt lat="47.527471" lon="7.817746">
        <ele>333.603177</ele>
        <time>2021-11-22T21:27:27.908Z</time>
      </trkpt>
      <trkpt lat="47.527432" lon="7.817173">
        <ele>332.775748</ele>
        <time>2021-11-22T21:27:32.047Z</time>
      </trkpt>
      <trkpt lat="47.527388" lon="7.816407">
        <ele>331.671223</ele>
        <time>2021-11-22T21:27:37.610Z</time>
      </trkpt>
      <trkpt lat="47.527376" lon="7.816175">
        <ele>331.336921</ele>
        <time>2021-11-22T21:27:39.278Z</time>
      </trkpt>
      <trkpt lat="47.527366" lon="7.816038">
        <ele>331.146549</ele>
        <time>2021-11-22T21:27:40.295Z</time>
      </trkpt>
      <trkpt lat="47.527362" lon="7.815959">
        <ele>331.056732</ele>
        <time>2021-11-22T21:27:40.906Z</time>
      </trkpt>
      <trkpt lat="47.527361" lon="7.815943">
        <ele>331.038514</ele>
        <time>2021-11-22T21:27:41.030Z</time>
      </trkpt>
      <trkpt lat="47.527346" lon="7.815799">
        <ele>330.873324</ele>
        <time>2021-11-22T21:27:42.050Z</time>
      </trkpt>
      <trkpt lat="47.527320" lon="7.815661">
        <ele>330.710892</ele>
        <time>2021-11-22T21:27:43.097Z</time>
      </trkpt>
      <trkpt lat="47.527292" lon="7.815550">
        <ele>330.576552</ele>
        <time>2021-11-22T21:27:43.959Z</time>
      </trkpt>
      <trkpt lat="47.527206" lon="7.815349">
        <ele>330.306773</ele>
        <time>2021-11-22T21:27:45.683Z</time>
      </trkpt>
      <trkpt lat="47.527153" lon="7.815269">
        <ele>330.179709</ele>
        <time>2021-11-22T21:27:46.483Z</time>
      </trkpt>
      <trkpt lat="47.527105" lon="7.815211">
        <ele>330.075693</ele>
        <time>2021-11-22T21:27:47.207Z</time>
      </trkpt>
      <trkpt lat="47.526665" lon="7.814850">
        <ele>329.231125</ele>
        <time>2021-11-22T21:27:52.944Z</time>
      </trkpt>
      <trkpt lat="47.526655" lon="7.814822">
        <ele>329.195213</ele>
        <time>2021-11-22T21:27:53.208Z</time>
      </trkpt>
      <trkpt lat="47.526652" lon="7.814787">
        <ele>329.155213</ele>
        <time>2021-11-22T21:27:53.436Z</time>
      </trkpt>
      <trkpt lat="47.526961" lon="7.813898">
        <ele>328.069863</ele>
        <time>2021-11-22T21:28:01.621Z</time>
      </trkpt>
      <trkpt lat="47.526991" lon="7.813710">
        <ele>327.930037</ele>
        <time>2021-11-22T21:28:03.061Z</time>
      </trkpt>
      <trkpt lat="47.527017" lon="7.813562">
        <ele>327.819346</ele>
        <time>2021-11-22T21:28:06.805Z</time>
      </trkpt>
      <trkpt lat="47.527029" lon="7.813504">
        <ele>327.775439</ele>
        <time>2021-11-22T21:28:08.305Z</time>
      </trkpt>
      <trkpt lat="47.527062" lon="7.813419">
        <ele>327.704470</ele>
        <time>2021-11-22T21:28:10.762Z</time>
      </trkpt>
      <trkpt lat="47.527100" lon="7.813322">
        <ele>327.623299</ele>
        <time>2021-11-22T21:28:13.157Z</time>
      </trkpt>
      <trkpt lat="47.527132" lon="7.813271">
        <ele>327.572908</ele>
        <time>2021-11-22T21:28:14.633Z</time>
      </trkpt>
      <trkpt lat="47.527245" lon="7.813136">
        <ele>327.417279</ele>
        <time>2021-11-22T21:28:19.597Z</time>
      </trkpt>
      <trkpt lat="47.527344" lon="7.813003">
        <ele>327.273999</ele>
        <time>2021-11-22T21:28:24.392Z</time>
      </trkpt>
      <trkpt lat="47.527405" lon="7.812921">
        <ele>327.185691</ele>
        <time>2021-11-22T21:28:26.911Z</time>
      </trkpt>
      <trkpt lat="47.527523" lon="7.812743">
        <ele>327.005141</ele>
        <time>2021-11-22T21:28:32.682Z</time>
      </trkpt>
      <trkpt lat="47.527551" lon="7.812698">
        <ele>326.960849</ele>
        <time>2021-11-22T21:28:34.262Z</time>
      </trkpt>
      <trkpt lat="47.527992" lon="7.811882">
        <ele>326.204975</ele>
        <time>2021-11-22T21:28:57.745Z</time>
      </trkpt>
      <trkpt lat="47.528071" lon="7.811726">
        <ele>326.067782</ele>
        <time>2021-11-22T21:29:02.287Z</time>
      </trkpt>
      <trkpt lat="47.528166" lon="7.811494">
        <ele>325.876887</ele>
        <time>2021-11-22T21:29:08.345Z</time>
      </trkpt>
      <trkpt lat="47.528445" lon="7.810741">
        <ele>325.272590</ele>
        <time>2021-11-22T21:29:27.973Z</time>
      </trkpt>
      <trkpt lat="47.528485" lon="7.810633">
        <ele>325.185926</ele>
        <time>2021-11-22T21:29:30.691Z</time>
      </trkpt>
      <trkpt lat="47.528551" lon="7.810479">
        <ele>325.057596</ele>
        <time>2021-11-22T21:29:34.642Z</time>
      </trkpt>
      <trkpt lat="47.528632" lon="7.810311">
        <ele>324.912360</ele>
        <time>2021-11-22T21:29:39.462Z</time>
      </trkpt>
      <trkpt lat="47.528791" lon="7.810026">
        <ele>324.652260</ele>
        <time>2021-11-22T21:29:42.315Z</time>
      </trkpt>
      <trkpt lat="47.529100" lon="7.809485">
        <ele>324.367075</ele>
        <time>2021-11-22T21:29:48.395Z</time>
      </trkpt>
      <trkpt lat="47.529208" lon="7.809338">
        <ele>324.377938</ele>
        <time>2021-11-22T21:29:50.202Z</time>
      </trkpt>
      <trkpt lat="47.529274" lon="7.809267">
        <ele>324.383979</ele>
        <time>2021-11-22T21:29:51.178Z</time>
      </trkpt>
      <trkpt lat="47.529336" lon="7.809212">
        <ele>324.389331</ele>
        <time>2021-11-22T21:29:52.864Z</time>
      </trkpt>
      <trkpt lat="47.529513" lon="7.809105">
        <ele>324.403489</ele>
        <time>2021-11-22T21:29:55.374Z</time>
      </trkpt>
      <trkpt lat="47.529594" lon="7.809061">
        <ele>324.409878</ele>
        <time>2021-11-22T21:29:56.383Z</time>
      </trkpt>
      <trkpt lat="47.529966" lon="7.808858">
        <ele>324.439238</ele>
        <time>2021-11-22T21:30:03.082Z</time>
      </trkpt>
      <trkpt lat="47.530041" lon="7.808819">
        <ele>324.445124</ele>
        <time>2021-11-22T21:30:04.880Z</time>
      </trkpt>
      <trkpt lat="47.530543" lon="7.808552">
        <ele>324.484625</ele>
        <time>2021-11-22T21:30:13.632Z</time>
      </trkpt>
      <trkpt lat="47.530585" lon="7.808529">
        <ele>324.492355</ele>
        <time>2021-11-22T21:30:14.148Z</time>
      </trkpt>
      <trkpt lat="47.530684" lon="7.808469">
        <ele>324.519460</ele>
        <time>2021-11-22T21:30:16.710Z</time>
      </trkpt>
      <trkpt lat="47.531066" lon="7.808197">
        <ele>324.626860</ele>
        <time>2021-11-22T21:30:24.262Z</time>
      </trkpt>
      <trkpt lat="47.531380" lon="7.807943">
        <ele>324.717519</ele>
        <time>2021-11-22T21:30:30.566Z</time>
      </trkpt>
      <trkpt lat="47.531735" lon="7.807655">
        <ele>324.820083</ele>
        <time>2021-11-22T21:30:36.747Z</time>
      </trkpt>
      <trkpt lat="47.532412" lon="7.807037">
        <ele>324.667073</ele>
        <time>2021-11-22T21:30:47.628Z</time>
      </trkpt>
      <trkpt lat="47.532581" lon="7.806843">
        <ele>324.480301</ele>
        <time>2021-11-22T21:30:50.452Z</time>
      </trkpt>
      <trkpt lat="47.532546" lon="7.806703">
        <ele>324.392254</ele>
        <time>2021-11-22T21:30:52.093Z</time>
      </trkpt>
      <trkpt lat="47.533091" lon="7.806305">
        <ele>323.861468</ele>
        <time>2021-11-22T21:31:02.551Z</time>
      </trkpt>
      <trkpt lat="47.533723" lon="7.806018">
        <ele>323.331687</ele>
        <time>2021-11-22T21:31:13.637Z</time>
      </trkpt>
      <trkpt lat="47.534648" lon="7.805785">
        <ele>322.962505</ele>
        <time>2021-11-22T21:31:30.881Z</time>
      </trkpt>
      <trkpt lat="47.534894" lon="7.805725">
        <ele>322.864408</ele>
        <time>2021-11-22T21:31:35.622Z</time>
      </trkpt>
      <trkpt lat="47.535092" lon="7.805671">
        <ele>322.785192</ele>
        <time>2021-11-22T21:31:39.987Z</time>
      </trkpt>
      <trkpt lat="47.535828" lon="7.805308">
        <ele>322.769881</ele>
        <time>2021-11-22T21:31:56.232Z</time>
      </trkpt>
      <trkpt lat="47.536875" lon="7.804558">
        <ele>323.036969</ele>
        <time>2021-11-22T21:32:22.163Z</time>
      </trkpt>
      <trkpt lat="47.537755" lon="7.803639">
        <ele>322.466131</ele>
        <time>2021-11-22T21:32:42.302Z</time>
      </trkpt>
      <trkpt lat="47.538164" lon="7.803170">
        <ele>322.118037</ele>
        <time>2021-11-22T21:32:51.448Z</time>
      </trkpt>
      <trkpt lat="47.538256" lon="7.803059">
        <ele>322.038182</ele>
        <time>2021-11-22T21:32:53.287Z</time>
      </trkpt>
      <trkpt lat="47.540006" lon="7.800680">
        <ele>320.281319</ele>
        <time>2021-11-22T21:33:34.180Z</time>
      </trkpt>
      <trkpt lat="47.540192" lon="7.800458">
        <ele>320.435785</ele>
        <time>2021-11-22T21:33:38.727Z</time>
      </trkpt>
      <trkpt lat="47.540260" lon="7.800353">
        <ele>320.499304</ele>
        <time>2021-11-22T21:33:41.792Z</time>
      </trkpt>
      <trkpt lat="47.540644" lon="7.800163">
        <ele>320.761111</ele>
        <time>2021-11-22T21:33:51.588Z</time>
      </trkpt>
      <trkpt lat="47.540897" lon="7.800171">
        <ele>320.924755</ele>
        <time>2021-11-22T21:33:57.754Z</time>
      </trkpt>
      <trkpt lat="47.541705" lon="7.800028">
        <ele>321.110863</ele>
        <time>2021-11-22T21:34:19.527Z</time>
      </trkpt>
      <trkpt lat="47.542307" lon="7.799830">
        <ele>320.874673</ele>
        <time>2021-11-22T21:34:34.500Z</time>
      </trkpt>
      <trkpt lat="47.542998" lon="7.799859">
        <ele>320.609903</ele>
        <time>2021-11-22T21:34:46.729Z</time>
      </trkpt>
      <trkpt lat="47.544071" lon="7.799629">
        <ele>315.698004</ele>
        <time>2021-11-22T21:35:01.651Z</time>
      </trkpt>
      <trkpt lat="47.544184" lon="7.799620">
        <ele>315.103820</ele>
        <time>2021-11-22T21:35:03.040Z</time>
      </trkpt>
      <trkpt lat="47.544345" lon="7.799570">
        <ele>314.240085</ele>
        <time>2021-11-22T21:35:05.235Z</time>
      </trkpt>
      <trkpt lat="47.544568" lon="7.799371">
        <ele>312.873162</ele>
        <time>2021-11-22T21:35:08.592Z</time>
      </trkpt>
      <trkpt lat="47.544749" lon="7.799388">
        <ele>311.920881</ele>
        <time>2021-11-22T21:35:11.034Z</time>
      </trkpt>
      <trkpt lat="47.544827" lon="7.799356">
        <ele>311.495914</ele>
        <time>2021-11-22T21:35:12.016Z</time>
      </trkpt>
      <trkpt lat="47.545096" lon="7.799250">
        <ele>310.116972</ele>
        <time>2021-11-22T21:35:15.736Z</time>
      </trkpt>
      <trkpt lat="47.545182" lon="7.799205">
        <ele>309.675045</ele>
        <time>2021-11-22T21:35:16.832Z</time>
      </trkpt>
      <trkpt lat="47.545396" lon="7.798977">
        <ele>308.397844</ele>
        <time>2021-11-22T21:35:20.374Z</time>
      </trkpt>
      <trkpt lat="47.545449" lon="7.798705">
        <ele>307.471908</ele>
        <time>2021-11-22T21:35:22.775Z</time>
      </trkpt>
      <trkpt lat="47.545511" lon="7.798680">
        <ele>307.160569</ele>
        <time>2021-11-22T21:35:23.606Z</time>
      </trkpt>
      <trkpt lat="47.545581" lon="7.798713">
        <ele>306.804637</ele>
        <time>2021-11-22T21:35:24.644Z</time>
      </trkpt>
      <trkpt lat="47.545731" lon="7.798810">
        <ele>306.011613</ele>
        <time>2021-11-22T21:35:26.851Z</time>
      </trkpt>
      <trkpt lat="47.545807" lon="7.798846">
        <ele>305.625002</ele>
        <time>2021-11-22T21:35:27.958Z</time>
      </trkpt>
      <trkpt lat="47.546418" lon="7.798980">
        <ele>302.632238</ele>
        <time>2021-11-22T21:35:36.806Z</time>
      </trkpt>
      <trkpt lat="47.547540" lon="7.799538">
        <ele>301.084112</ele>
        <time>2021-11-22T21:35:56.529Z</time>
      </trkpt>
      <trkpt lat="47.547912" lon="7.799646">
        <ele>300.647567</ele>
        <time>2021-11-22T21:36:03.910Z</time>
      </trkpt>
      <trkpt lat="47.548459" lon="7.799691">
        <ele>300.299170</ele>
        <time>2021-11-22T21:36:14.848Z</time>
      </trkpt>
      <trkpt lat="47.548535" lon="7.799720">
        <ele>300.293518</ele>
        <time>2021-11-22T21:36:16.368Z</time>
      </trkpt>
      <trkpt lat="47.548514" lon="7.799795">
        <ele>300.289571</ele>
        <time>2021-11-22T21:36:17.432Z</time>
      </trkpt>
      <trkpt lat="47.548519" lon="7.799896">
        <ele>300.284648</ele>
        <time>2021-11-22T21:36:18.787Z</time>
      </trkpt>
      <trkpt lat="47.548545" lon="7.800404">
        <ele>300.259884</ele>
        <time>2021-11-22T21:36:25.577Z</time>
      </trkpt>
      <trkpt lat="47.548560" lon="7.800672">
        <ele>300.246812</ele>
        <time>2021-11-22T21:36:29.270Z</time>
      </trkpt>
      <trkpt lat="47.548569" lon="7.800838">
        <ele>300.238717</ele>
        <time>2021-11-22T21:36:31.514Z</time>
      </trkpt>
      <trkpt lat="47.548576" lon="7.800968">
        <ele>300.232377</ele>
        <time>2021-11-22T21:36:33.289Z</time>
      </trkpt>
      <trkpt lat="47.548596" lon="7.801213">
        <ele>300.220381</ele>
        <time>2021-11-22T21:36:36.668Z</time>
      </trkpt>
      <trkpt lat="47.548607" lon="7.801690">
        <ele>300.197181</ele>
        <time>2021-11-22T21:36:43.169Z</time>
      </trkpt>
      <trkpt lat="47.548626" lon="7.802129">
        <ele>300.143127</ele>
        <time>2021-11-22T21:36:49.098Z</time>
      </trkpt>
      <trkpt lat="47.548877" lon="7.802168">
        <ele>300.078132</ele>
        <time>2021-11-22T21:36:54.084Z</time>
      </trkpt>
      <trkpt lat="47.549410" lon="7.802226">
        <ele>299.940498</ele>
        <time>2021-11-22T21:37:04.507Z</time>
      </trkpt>
      <trkpt lat="47.549481" lon="7.802234">
        <ele>299.922161</ele>
        <time>2021-11-22T21:37:05.835Z</time>
      </trkpt>
      <trkpt lat="47.549879" lon="7.802247">
        <ele>299.819639</ele>
        <time>2021-11-22T21:37:13.300Z</time>
      </trkpt>
      <trkpt lat="47.550146" lon="7.802262">
        <ele>299.750829</ele>
        <time>2021-11-22T21:37:18.379Z</time>
      </trkpt>
      <trkpt lat="47.550146" lon="7.802262">
        <ele>299.750829</ele>
        <time>2021-11-22T21:37:18.384Z</time>
      </trkpt>
      <trkpt lat="47.550134" lon="7.803051">
        <ele>299.611744</ele>
        <time>2021-11-22T21:37:28.611Z</time>
      </trkpt>
      <trkpt lat="47.550196" lon="7.803120">
        <ele>299.591433</ele>
        <time>2021-11-22T21:37:30.074Z</time>
      </trkpt>
      <trkpt lat="47.550981" lon="7.803132">
        <ele>299.385807</ele>
        <time>2021-11-22T21:37:44.723Z</time>
      </trkpt>
      <trkpt lat="47.551163" lon="7.803129">
        <ele>299.338133</ele>
        <time>2021-11-22T21:37:48.117Z</time>
      </trkpt>
      <trkpt lat="47.551598" lon="7.803160">
        <ele>299.332576</ele>
        <time>2021-11-22T21:37:56.710Z</time>
      </trkpt>
      <trkpt lat="47.551666" lon="7.803144">
        <ele>299.379567</ele>
        <time>2021-11-22T21:38:01.454Z</time>
      </trkpt>
      <trkpt lat="47.551732" lon="7.803125">
        <ele>299.425455</ele>
        <time>2021-11-22T21:38:06.121Z</time>
      </trkpt>
      <trkpt lat="47.551744" lon="7.803277">
        <ele>299.495949</ele>
        <time>2021-11-22T21:38:07.815Z</time>
      </trkpt>
      <trkpt lat="47.551751" lon="7.803369">
        <ele>299.538596</ele>
        <time>2021-11-22T21:38:08.889Z</time>
      </trkpt>
      <trkpt lat="47.551692" lon="7.803510">
        <ele>299.615016</ele>
        <time>2021-11-22T21:38:11.483Z</time>
      </trkpt>
      <trkpt lat="47.551741" lon="7.804294">
        <ele>299.977700</ele>
        <time>2021-11-22T21:38:24.501Z</time>
      </trkpt>
      <trkpt lat="47.551744" lon="7.804473">
        <ele>300.060180</ele>
        <time>2021-11-22T21:38:27.021Z</time>
      </trkpt>
      <trkpt lat="47.551731" lon="7.804667">
        <ele>300.149983</ele>
        <time>2021-11-22T21:38:31.001Z</time>
      </trkpt>
      <trkpt lat="47.551709" lon="7.805000">
        <ele>300.304108</ele>
        <time>2021-11-22T21:38:35.492Z</time>
      </trkpt>
      <trkpt lat="47.551681" lon="7.805477">
        <ele>300.498012</ele>
        <time>2021-11-22T21:38:43.229Z</time>
      </trkpt>
      <trkpt lat="47.551671" lon="7.806117">
        <ele>300.609829</ele>
        <time>2021-11-22T21:38:53.318Z</time>
      </trkpt>
      <trkpt lat="47.551651" lon="7.806246">
        <ele>300.632948</ele>
        <time>2021-11-22T21:38:56.221Z</time>
      </trkpt>
      <trkpt lat="47.551895" lon="7.806278">
        <ele>300.696340</ele>
        <time>2021-11-22T21:38:59.746Z</time>
      </trkpt>
      <trkpt lat="47.552015" lon="7.806307">
        <ele>300.727806</ele>
        <time>2021-11-22T21:39:02.616Z</time>
      </trkpt>
      <trkpt lat="47.552068" lon="7.806445">
        <ele>300.755539</ele>
        <time>2021-11-22T21:39:04.073Z</time>
      </trkpt>
      <trkpt lat="47.552398" lon="7.808880">
        <ele>300.377115</ele>
        <time>2021-11-22T21:39:26.216Z</time>
      </trkpt>
      <trkpt lat="47.552566" lon="7.810386">
        <ele>299.741206</ele>
        <time>2021-11-22T21:39:39.227Z</time>
      </trkpt>
      <trkpt lat="47.552711" lon="7.812955">
        <ele>298.599284</ele>
        <time>2021-11-22T21:40:01.836Z</time>
      </trkpt>
      <trkpt lat="47.552844" lon="7.816432">
        <ele>297.481501</ele>
        <time>2021-11-22T21:40:32.329Z</time>
      </trkpt>
      <trkpt lat="47.552948" lon="7.819358">
        <ele>297.832707</ele>
        <time>2021-11-22T21:41:03.559Z</time>
      </trkpt>
      <trkpt lat="47.552896" lon="7.820699">
        <ele>298.312757</ele>
        <time>2021-11-22T21:41:19.643Z</time>
      </trkpt>
      <trkpt lat="47.552567" lon="7.824508">
        <ele>300.225329</ele>
        <time>2021-11-22T21:42:06.127Z</time>
      </trkpt>
      <trkpt lat="47.552491" lon="7.827227">
        <ele>301.790078</ele>
        <time>2021-11-22T21:42:37.867Z</time>
      </trkpt>
      <trkpt lat="47.552515" lon="7.828094">
        <ele>302.432065</ele>
        <time>2021-11-22T21:42:49.577Z</time>
      </trkpt>
      <trkpt lat="47.552477" lon="7.828294">
        <ele>302.585787</ele>
        <time>2021-11-22T21:42:52.194Z</time>
      </trkpt>
      <trkpt lat="47.552421" lon="7.828481">
        <ele>302.737146</ele>
        <time>2021-11-22T21:42:55.126Z</time>
      </trkpt>
      <trkpt lat="47.552404" lon="7.828582">
        <ele>302.814160</ele>
        <time>2021-11-22T21:42:56.810Z</time>
      </trkpt>
      <trkpt lat="47.552416" lon="7.828822">
        <ele>303.090835</ele>
        <time>2021-11-22T21:43:00.044Z</time>
      </trkpt>
      <trkpt lat="47.552554" lon="7.829266">
        <ele>303.880349</ele>
        <time>2021-11-22T21:43:07.395Z</time>
      </trkpt>
      <trkpt lat="47.552645" lon="7.830686">
        <ele>306.184164</ele>
        <time>2021-11-22T21:43:30.701Z</time>
      </trkpt>
      <trkpt lat="47.552690" lon="7.832598">
        <ele>309.783834</ele>
        <time>2021-11-22T21:44:06.178Z</time>
      </trkpt>
      <trkpt lat="47.552616" lon="7.832891">
        <ele>310.414068</ele>
        <time>2021-11-22T21:44:11.542Z</time>
      </trkpt>
      <trkpt lat="47.552556" lon="7.832977">
        <ele>310.663247</ele>
        <time>2021-11-22T21:44:14.274Z</time>
      </trkpt>
      <trkpt lat="47.552511" lon="7.833072">
        <ele>310.897060</ele>
        <time>2021-11-22T21:44:16.299Z</time>
      </trkpt>
      <trkpt lat="47.552467" lon="7.833198">
        <ele>311.182857</ele>
        <time>2021-11-22T21:44:18.701Z</time>
      </trkpt>
      <trkpt lat="47.552452" lon="7.833284">
        <ele>311.361799</ele>
        <time>2021-11-22T21:44:20.312Z</time>
      </trkpt>
      <trkpt lat="47.552696" lon="7.833789">
        <ele>312.604014</ele>
        <time>2021-11-22T21:44:31.343Z</time>
      </trkpt>
      <trkpt lat="47.552700" lon="7.833938">
        <ele>312.817725</ele>
        <time>2021-11-22T21:44:34.288Z</time>
      </trkpt>
      <trkpt lat="47.552714" lon="7.835010">
        <ele>314.354367</ele>
        <time>2021-11-22T21:44:52.765Z</time>
      </trkpt>
      <trkpt lat="47.552719" lon="7.836790">
        <ele>316.752355</ele>
        <time>2021-11-22T21:45:18.048Z</time>
      </trkpt>
      <trkpt lat="47.552697" lon="7.838068">
        <ele>318.028180</ele>
        <time>2021-11-22T21:45:35.690Z</time>
      </trkpt>
      <trkpt lat="47.552736" lon="7.838578">
        <ele>318.540402</ele>
        <time>2021-11-22T21:45:42.817Z</time>
      </trkpt>
      <trkpt lat="47.552802" lon="7.839009">
        <ele>318.981461</ele>
        <time>2021-11-22T21:45:49.036Z</time>
      </trkpt>
      <trkpt lat="47.552939" lon="7.839526">
        <ele>319.581684</ele>
        <time>2021-11-22T21:45:56.826Z</time>
      </trkpt>
      <trkpt lat="47.553231" lon="7.841529">
        <ele>321.824526</ele>
        <time>2021-11-22T21:46:26.956Z</time>
      </trkpt>
      <trkpt lat="47.553216" lon="7.841849">
        <ele>322.107724</ele>
        <time>2021-11-22T21:46:31.480Z</time>
      </trkpt>
      <trkpt lat="47.553123" lon="7.842222">
        <ele>322.393574</ele>
        <time>2021-11-22T21:46:36.709Z</time>
      </trkpt>
      <trkpt lat="47.553133" lon="7.842431">
        <ele>322.544195</ele>
        <time>2021-11-22T21:46:39.839Z</time>
      </trkpt>
      <trkpt lat="47.552833" lon="7.842495">
        <ele>322.867032</ele>
        <time>2021-11-22T21:46:47.148Z</time>
      </trkpt>
      <trkpt lat="47.552380" lon="7.842592">
        <ele>323.354553</ele>
        <time>2021-11-22T21:46:58.196Z</time>
      </trkpt>
      <trkpt lat="47.551922" lon="7.842704">
        <ele>323.848987</ele>
        <time>2021-11-22T21:47:08.762Z</time>
      </trkpt>
      <trkpt lat="47.551668" lon="7.842770">
        <ele>324.079702</ele>
        <time>2021-11-22T21:47:14.721Z</time>
      </trkpt>
      <trkpt lat="47.551454" lon="7.842815">
        <ele>324.265934</ele>
        <time>2021-11-22T21:47:19.408Z</time>
      </trkpt>
      <trkpt lat="47.551344" lon="7.844621">
        <ele>325.320434</ele>
        <time>2021-11-22T21:47:41.922Z</time>
      </trkpt>
      <trkpt lat="47.551205" lon="7.846694">
        <ele>327.182501</ele>
        <time>2021-11-22T21:48:09.910Z</time>
      </trkpt>
      <trkpt lat="47.551184" lon="7.847206">
        <ele>327.659085</ele>
        <time>2021-11-22T21:48:17.296Z</time>
      </trkpt>
      <trkpt lat="47.551196" lon="7.847517">
        <ele>327.951941</ele>
        <time>2021-11-22T21:48:21.860Z</time>
      </trkpt>
      <trkpt lat="47.551669" lon="7.848083">
        <ele>328.887384</ele>
        <time>2021-11-22T21:48:34.945Z</time>
      </trkpt>
      <trkpt lat="47.551242" lon="7.848702">
        <ele>329.806501</ele>
        <time>2021-11-22T21:48:47.528Z</time>
      </trkpt>
      <trkpt lat="47.550975" lon="7.849066">
        <ele>330.364738</ele>
        <time>2021-11-22T21:48:54.870Z</time>
      </trkpt>
      <trkpt lat="47.550810" lon="7.849346">
        <ele>330.730437</ele>
        <time>2021-11-22T21:49:01.300Z</time>
      </trkpt>
      <trkpt lat="47.550488" lon="7.850081">
        <ele>331.352046</ele>
        <time>2021-11-22T21:49:16.745Z</time>
      </trkpt>
      <trkpt lat="47.550333" lon="7.850434">
        <ele>331.650790</ele>
        <time>2021-11-22T21:49:24.063Z</time>
      </trkpt>
      <trkpt lat="47.550009" lon="7.851173">
        <ele>332.275927</ele>
        <time>2021-11-22T21:49:38.692Z</time>
      </trkpt>
      <trkpt lat="47.550009" lon="7.851173">
        <ele>332.275927</ele>
        <time>2021-11-22T21:49:38.695Z</time>
      </trkpt>
      <trkpt lat="47.549652" lon="7.851969">
        <ele>332.528450</ele>
        <time>2021-11-22T21:49:52.608Z</time>
      </trkpt>
      <trkpt lat="47.549535" lon="7.852225">
        <ele>332.500106</ele>
        <time>2021-11-22T21:49:56.644Z</time>
      </trkpt>
      <trkpt lat="47.549285" lon="7.852784">
        <ele>332.438629</ele>
        <time>2021-11-22T21:50:05.283Z</time>
      </trkpt>
      <trkpt lat="47.549708" lon="7.853279">
        <ele>332.365414</ele>
        <time>2021-11-22T21:50:15.652Z</time>
      </trkpt>
      <trkpt lat="47.550221" lon="7.853833">
        <ele>332.112735</ele>
        <time>2021-11-22T21:50:27.574Z</time>
      </trkpt>
      <trkpt lat="47.549883" lon="7.854434">
        <ele>331.818487</ele>
        <time>2021-11-22T21:50:34.251Z</time>
      </trkpt>
      <trkpt lat="47.549566" lon="7.855225">
        <ele>331.472468</ele>
        <time>2021-11-22T21:50:45.396Z</time>
      </trkpt>
      <trkpt lat="47.549362" lon="7.855774">
        <ele>331.307402</ele>
        <time>2021-11-22T21:50:53.317Z</time>
      </trkpt>
      <trkpt lat="47.548887" lon="7.857308">
        <ele>331.151102</ele>
        <time>2021-11-22T21:51:15.426Z</time>
      </trkpt>
      <trkpt lat="47.548743" lon="7.857692">
        <ele>331.110419</ele>
        <time>2021-11-22T21:51:21.397Z</time>
      </trkpt>
      <trkpt lat="47.548701" lon="7.857893">
        <ele>331.090933</ele>
        <time>2021-11-22T21:51:24.369Z</time>
      </trkpt>
      <trkpt lat="47.548686" lon="7.857973">
        <ele>331.086397</ele>
        <time>2021-11-22T21:51:25.492Z</time>
      </trkpt>
      <trkpt lat="47.548611" lon="7.858381">
        <ele>331.322187</ele>
        <time>2021-11-22T21:51:31.706Z</time>
      </trkpt>
      <trkpt lat="47.548334" lon="7.859801">
        <ele>332.146394</ele>
        <time>2021-11-22T21:51:54.743Z</time>
      </trkpt>
      <trkpt lat="47.548049" lon="7.860929">
        <ele>332.569599</ele>
        <time>2021-11-22T21:52:15.762Z</time>
      </trkpt>
      <trkpt lat="47.547930" lon="7.861711">
        <ele>332.569599</ele>
        <time>2021-11-22T21:52:30.525Z</time>
      </trkpt>
      <trkpt lat="47.547568" lon="7.863151">
        <ele>332.569599</ele>
        <time>2021-11-22T21:52:59.259Z</time>
      </trkpt>
      <trkpt lat="47.547320" lon="7.863864">
        <ele>332.569599</ele>
        <time>2021-11-22T21:53:13.524Z</time>
      </trkpt>
      <trkpt lat="47.547167" lon="7.864112">
        <ele>332.569599</ele>
        <time>2021-11-22T21:53:19.358Z</time>
      </trkpt>
    </trkseg>
  </trk>
</gpx>